<?xml version='1.0' encoding='UTF-8'?><gpx version="1.1" creator="JPX - https://github.com/jenetics/jpx" xmlns="http://www.topografix.com/GPX/1/1"><trk><trkseg><trkpt lat="43.6853202" lon="11.725938"><ele>699.0</ele><time>2026-04-18T14:03:33.46Z</time></trkpt><trkpt lat="43.6853409" lon="11.7260292"><ele>699.0</ele><time>2026-04-18T14:03:35.458Z</time></trkpt><trkpt lat="43.6853712" lon="11.7261424"><ele>699.0</ele><time>2026-04-18T14:03:37.464Z</time></trkpt><trkpt lat="43.6853889" lon="11.7262824"><ele>699.0</ele><time>2026-04-18T14:03:39.479Z</time></trkpt><trkpt lat="43.6853959" lon="11.7263703"><ele>699.0</ele><time>2026-04-18T14:03:40.481Z</time></trkpt><trkpt lat="43.6854021" lon="11.7264627"><ele>699.0</ele><time>2026-04-18T14:03:41.466Z</time></trkpt><trkpt lat="43.6854121" lon="11.7265497"><ele>696.8333333333334</ele><time>2026-04-18T14:03:42.473Z</time></trkpt><trkpt lat="43.6854294" lon="11.7266373"><ele>694.6666666666666</ele><time>2026-04-18T14:03:43.462Z</time></trkpt><trkpt lat="43.6854499" lon="11.7267219"><ele>692.5</ele><time>2026-04-18T14:03:44.462Z</time></trkpt><trkpt lat="43.6854944" lon="11.726856"><ele>690.3333333333333</ele><time>2026-04-18T14:03:46.456Z</time></trkpt><trkpt lat="43.6855538" lon="11.7269184"><ele>688.1666666666666</ele><time>2026-04-18T14:03:48.465Z</time></trkpt><trkpt lat="43.6856308" lon="11.7268834"><ele>686.0</ele><time>2026-04-18T14:03:50.461Z</time></trkpt><trkpt lat="43.6856929" lon="11.726777"><ele>686.0</ele><time>2026-04-18T14:03:52.465Z</time></trkpt><trkpt lat="43.6857386" lon="11.7267166"><ele>686.0</ele><time>2026-04-18T14:03:53.459Z</time></trkpt><trkpt lat="43.6858027" lon="11.7266461"><ele>686.0</ele><time>2026-04-18T14:03:54.466Z</time></trkpt><trkpt lat="43.6858749" lon="11.7265711"><ele>686.0</ele><time>2026-04-18T14:03:55.468Z</time></trkpt><trkpt lat="43.6859563" lon="11.7264908"><ele>686.0</ele><time>2026-04-18T14:03:56.465Z</time></trkpt><trkpt lat="43.6860381" lon="11.7264103"><ele>686.0</ele><time>2026-04-18T14:03:57.465Z</time></trkpt><trkpt lat="43.6861236" lon="11.7263059"><ele>686.1999999999999</ele><time>2026-04-18T14:03:58.45Z</time></trkpt><trkpt lat="43.6862083" lon="11.7262154"><ele>686.4</ele><time>2026-04-18T14:03:59.467Z</time></trkpt><trkpt lat="43.6862934" lon="11.7261261"><ele>686.6</ele><time>2026-04-18T14:04:00.466Z</time></trkpt><trkpt lat="43.6863704" lon="11.7260364"><ele>686.8</ele><time>2026-04-18T14:04:01.458Z</time></trkpt><trkpt lat="43.6864528" lon="11.7259828"><ele>687.0</ele><time>2026-04-18T14:04:02.467Z</time></trkpt><trkpt lat="43.6865474" lon="11.7259743"><ele>687.0</ele><time>2026-04-18T14:04:03.457Z</time></trkpt><trkpt lat="43.6866371" lon="11.726009"><ele>687.0</ele><time>2026-04-18T14:04:04.453Z</time></trkpt><trkpt lat="43.6867196" lon="11.7260875"><ele>687.0</ele><time>2026-04-18T14:04:05.458Z</time></trkpt><trkpt lat="43.6868087" lon="11.7261923"><ele>687.0</ele><time>2026-04-18T14:04:06.473Z</time></trkpt><trkpt lat="43.6868988" lon="11.7263146"><ele>687.0</ele><time>2026-04-18T14:04:07.46Z</time></trkpt><trkpt lat="43.6869868" lon="11.7264618"><ele>688.0</ele><time>2026-04-18T14:04:08.462Z</time></trkpt><trkpt lat="43.6870713" lon="11.7266218"><ele>689.0</ele><time>2026-04-18T14:04:09.468Z</time></trkpt><trkpt lat="43.6871493" lon="11.7267741"><ele>690.0</ele><time>2026-04-18T14:04:10.47Z</time></trkpt><trkpt lat="43.687228" lon="11.7268906"><ele>691.0</ele><time>2026-04-18T14:04:11.465Z</time></trkpt><trkpt lat="43.6873154" lon="11.7269789"><ele>691.0</ele><time>2026-04-18T14:04:12.467Z</time></trkpt><trkpt lat="43.6874182" lon="11.7269953"><ele>691.0</ele><time>2026-04-18T14:04:13.469Z</time></trkpt><trkpt lat="43.6875256" lon="11.7269439"><ele>691.0</ele><time>2026-04-18T14:04:14.467Z</time></trkpt><trkpt lat="43.6876131" lon="11.7268637"><ele>691.0</ele><time>2026-04-18T14:04:15.466Z</time></trkpt><trkpt lat="43.6876732" lon="11.726744"><ele>691.0</ele><time>2026-04-18T14:04:16.462Z</time></trkpt><trkpt lat="43.6877253" lon="11.7266166"><ele>698.5999999999999</ele><time>2026-04-18T14:04:17.469Z</time></trkpt><trkpt lat="43.6877891" lon="11.726543"><ele>706.2</ele><time>2026-04-18T14:04:18.458Z</time></trkpt><trkpt lat="43.6878659" lon="11.7265113"><ele>713.8</ele><time>2026-04-18T14:04:19.459Z</time></trkpt><trkpt lat="43.6879543" lon="11.7265377"><ele>721.4000000000001</ele><time>2026-04-18T14:04:20.465Z</time></trkpt><trkpt lat="43.6880245" lon="11.7266197"><ele>729.0</ele><time>2026-04-18T14:04:21.464Z</time></trkpt><trkpt lat="43.6880873" lon="11.7267367"><ele>729.0</ele><time>2026-04-18T14:04:22.477Z</time></trkpt><trkpt lat="43.6881615" lon="11.7268668"><ele>729.0</ele><time>2026-04-18T14:04:23.466Z</time></trkpt><trkpt lat="43.6882436" lon="11.7270168"><ele>729.0</ele><time>2026-04-18T14:04:24.467Z</time></trkpt><trkpt lat="43.6883295" lon="11.7271422"><ele>729.0</ele><time>2026-04-18T14:04:25.456Z</time></trkpt><trkpt lat="43.6883947" lon="11.727248"><ele>730.2</ele><time>2026-04-18T14:04:26.462Z</time></trkpt><trkpt lat="43.688469" lon="11.7273283"><ele>731.4000000000001</ele><time>2026-04-18T14:04:27.463Z</time></trkpt><trkpt lat="43.688571" lon="11.7273685"><ele>732.6</ele><time>2026-04-18T14:04:28.47Z</time></trkpt><trkpt lat="43.688683" lon="11.7273832"><ele>733.8</ele><time>2026-04-18T14:04:29.467Z</time></trkpt><trkpt lat="43.6888059" lon="11.7273954"><ele>735.0</ele><time>2026-04-18T14:04:30.463Z</time></trkpt><trkpt lat="43.6889248" lon="11.7274061"><ele>735.0</ele><time>2026-04-18T14:04:31.466Z</time></trkpt><trkpt lat="43.6890642" lon="11.7274294"><ele>735.0</ele><time>2026-04-18T14:04:32.461Z</time></trkpt><trkpt lat="43.6892094" lon="11.727477"><ele>735.0</ele><time>2026-04-18T14:04:33.481Z</time></trkpt><trkpt lat="43.6893288" lon="11.7275479"><ele>735.0</ele><time>2026-04-18T14:04:34.459Z</time></trkpt><trkpt lat="43.6894162" lon="11.7276357"><ele>738.3333333333334</ele><time>2026-04-18T14:04:35.459Z</time></trkpt><trkpt lat="43.6894956" lon="11.7276829"><ele>741.6666666666666</ele><time>2026-04-18T14:04:36.476Z</time></trkpt><trkpt lat="43.6895753" lon="11.7276697"><ele>745.0</ele><time>2026-04-18T14:04:37.471Z</time></trkpt><trkpt lat="43.6896346" lon="11.7276032"><ele>748.3333333333333</ele><time>2026-04-18T14:04:38.458Z</time></trkpt><trkpt lat="43.6896593" lon="11.7274969"><ele>751.6666666666666</ele><time>2026-04-18T14:04:39.469Z</time></trkpt><trkpt lat="43.6896233" lon="11.7274011"><ele>755.0</ele><time>2026-04-18T14:04:40.467Z</time></trkpt><trkpt lat="43.6895516" lon="11.7273413"><ele>755.0</ele><time>2026-04-18T14:04:41.466Z</time></trkpt><trkpt lat="43.6894585" lon="11.7273031"><ele>755.0</ele><time>2026-04-18T14:04:42.476Z</time></trkpt><trkpt lat="43.6893457" lon="11.7272522"><ele>755.0</ele><time>2026-04-18T14:04:43.464Z</time></trkpt><trkpt lat="43.6892328" lon="11.7271651"><ele>755.0</ele><time>2026-04-18T14:04:44.478Z</time></trkpt><trkpt lat="43.6891182" lon="11.7270704"><ele>753.8</ele><time>2026-04-18T14:04:45.468Z</time></trkpt><trkpt lat="43.6890081" lon="11.7269766"><ele>752.6</ele><time>2026-04-18T14:04:46.458Z</time></trkpt><trkpt lat="43.6889203" lon="11.7268992"><ele>751.4000000000001</ele><time>2026-04-18T14:04:47.461Z</time></trkpt><trkpt lat="43.6888571" lon="11.726818"><ele>750.2</ele><time>2026-04-18T14:04:48.461Z</time></trkpt><trkpt lat="43.6888388" lon="11.7267339"><ele>749.0</ele><time>2026-04-18T14:04:49.454Z</time></trkpt><trkpt lat="43.6888578" lon="11.7266101"><ele>749.0</ele><time>2026-04-18T14:04:50.461Z</time></trkpt><trkpt lat="43.6889051" lon="11.7264934"><ele>749.0</ele><time>2026-04-18T14:04:51.465Z</time></trkpt><trkpt lat="43.6889634" lon="11.7263454"><ele>749.0</ele><time>2026-04-18T14:04:52.47Z</time></trkpt><trkpt lat="43.6890249" lon="11.7261843"><ele>749.0</ele><time>2026-04-18T14:04:53.468Z</time></trkpt><trkpt lat="43.6890553" lon="11.7260514"><ele>750.6</ele><time>2026-04-18T14:04:54.454Z</time></trkpt><trkpt lat="43.6890651" lon="11.7259367"><ele>752.2</ele><time>2026-04-18T14:04:55.468Z</time></trkpt><trkpt lat="43.6890361" lon="11.7258182"><ele>753.8000000000001</ele><time>2026-04-18T14:04:56.457Z</time></trkpt><trkpt lat="43.6889702" lon="11.7257223"><ele>755.4000000000001</ele><time>2026-04-18T14:04:57.456Z</time></trkpt><trkpt lat="43.6888751" lon="11.7256625"><ele>757.0</ele><time>2026-04-18T14:04:58.459Z</time></trkpt><trkpt lat="43.6887993" lon="11.7256126"><ele>757.0</ele><time>2026-04-18T14:04:59.456Z</time></trkpt><trkpt lat="43.6887827" lon="11.7255102"><ele>757.0</ele><time>2026-04-18T14:05:00.451Z</time></trkpt><trkpt lat="43.688791" lon="11.7254128"><ele>757.0</ele><time>2026-04-18T14:05:01.467Z</time></trkpt><trkpt lat="43.6888213" lon="11.7253345"><ele>757.0</ele><time>2026-04-18T14:05:02.468Z</time></trkpt><trkpt lat="43.6888849" lon="11.7252799"><ele>757.0</ele><time>2026-04-18T14:05:03.459Z</time></trkpt><trkpt lat="43.6889907" lon="11.7252963"><ele>757.0</ele><time>2026-04-18T14:05:04.453Z</time></trkpt><trkpt lat="43.6891149" lon="11.7253537"><ele>757.0</ele><time>2026-04-18T14:05:05.462Z</time></trkpt><trkpt lat="43.6892455" lon="11.7254067"><ele>757.0</ele><time>2026-04-18T14:05:06.457Z</time></trkpt><trkpt lat="43.6893864" lon="11.725464"><ele>757.0</ele><time>2026-04-18T14:05:07.46Z</time></trkpt><trkpt lat="43.6895513" lon="11.7255289"><ele>761.0</ele><time>2026-04-18T14:05:08.462Z</time></trkpt><trkpt lat="43.6897204" lon="11.7256057"><ele>765.0</ele><time>2026-04-18T14:05:09.465Z</time></trkpt><trkpt lat="43.6898373" lon="11.7256903"><ele>769.0</ele><time>2026-04-18T14:05:10.463Z</time></trkpt><trkpt lat="43.6899135" lon="11.7258069"><ele>773.0</ele><time>2026-04-18T14:05:11.461Z</time></trkpt><trkpt lat="43.6899675" lon="11.7259363"><ele>773.0</ele><time>2026-04-18T14:05:12.463Z</time></trkpt><trkpt lat="43.6900087" lon="11.7260592"><ele>773.0</ele><time>2026-04-18T14:05:13.463Z</time></trkpt><trkpt lat="43.6900415" lon="11.7261722"><ele>773.0</ele><time>2026-04-18T14:05:14.452Z</time></trkpt><trkpt lat="43.6901487" lon="11.7262665"><ele>773.0</ele><time>2026-04-18T14:05:16.459Z</time></trkpt><trkpt lat="43.6902182" lon="11.726244"><ele>773.0</ele><time>2026-04-18T14:05:17.46Z</time></trkpt><trkpt lat="43.6902613" lon="11.7261511"><ele>773.0</ele><time>2026-04-18T14:05:18.475Z</time></trkpt><trkpt lat="43.690253" lon="11.7260585"><ele>773.0</ele><time>2026-04-18T14:05:19.456Z</time></trkpt><trkpt lat="43.6902086" lon="11.7259373"><ele>773.0</ele><time>2026-04-18T14:05:20.463Z</time></trkpt><trkpt lat="43.690153" lon="11.7257899"><ele>773.0</ele><time>2026-04-18T14:05:21.456Z</time></trkpt><trkpt lat="43.6900806" lon="11.7256208"><ele>773.0</ele><time>2026-04-18T14:05:22.455Z</time></trkpt><trkpt lat="43.6900175" lon="11.7254305"><ele>777.6666666666667</ele><time>2026-04-18T14:05:23.47Z</time></trkpt><trkpt lat="43.6899438" lon="11.7252095"><ele>782.3333333333333</ele><time>2026-04-18T14:05:24.465Z</time></trkpt><trkpt lat="43.6898644" lon="11.7249605"><ele>787.0</ele><time>2026-04-18T14:05:25.458Z</time></trkpt><trkpt lat="43.6897912" lon="11.7247472"><ele>787.0</ele><time>2026-04-18T14:05:26.464Z</time></trkpt><trkpt lat="43.6897169" lon="11.7245627"><ele>787.0</ele><time>2026-04-18T14:05:27.465Z</time></trkpt><trkpt lat="43.6896347" lon="11.7243952"><ele>787.0</ele><time>2026-04-18T14:05:28.463Z</time></trkpt><trkpt lat="43.6895534" lon="11.72422"><ele>786.5</ele><time>2026-04-18T14:05:29.465Z</time></trkpt><trkpt lat="43.6894709" lon="11.724053"><ele>786.0</ele><time>2026-04-18T14:05:30.453Z</time></trkpt><trkpt lat="43.6894024" lon="11.723885"><ele>785.5</ele><time>2026-04-18T14:05:31.458Z</time></trkpt><trkpt lat="43.6893436" lon="11.7237359"><ele>785.0</ele><time>2026-04-18T14:05:32.46Z</time></trkpt><trkpt lat="43.6893022" lon="11.7235878"><ele>787.5</ele><time>2026-04-18T14:05:33.465Z</time></trkpt><trkpt lat="43.6892854" lon="11.7234208"><ele>790.0</ele><time>2026-04-18T14:05:34.448Z</time></trkpt><trkpt lat="43.6892793" lon="11.7232347"><ele>792.5</ele><time>2026-04-18T14:05:35.464Z</time></trkpt><trkpt lat="43.6892846" lon="11.7230389"><ele>795.0</ele><time>2026-04-18T14:05:36.46Z</time></trkpt><trkpt lat="43.6892808" lon="11.7228284"><ele>797.3333333333333</ele><time>2026-04-18T14:05:37.462Z</time></trkpt><trkpt lat="43.6892791" lon="11.722618"><ele>799.6666666666666</ele><time>2026-04-18T14:05:38.463Z</time></trkpt><trkpt lat="43.6892679" lon="11.722416"><ele>802.0</ele><time>2026-04-18T14:05:39.465Z</time></trkpt><trkpt lat="43.6892356" lon="11.7222035"><ele>802.0</ele><time>2026-04-18T14:05:40.46Z</time></trkpt><trkpt lat="43.6891632" lon="11.7220009"><ele>802.0</ele><time>2026-04-18T14:05:41.46Z</time></trkpt><trkpt lat="43.6890775" lon="11.7217996"><ele>802.0</ele><time>2026-04-18T14:05:42.46Z</time></trkpt><trkpt lat="43.6890044" lon="11.7216097"><ele>804.4000000000001</ele><time>2026-04-18T14:05:43.458Z</time></trkpt><trkpt lat="43.6889406" lon="11.7214428"><ele>806.8000000000001</ele><time>2026-04-18T14:05:44.456Z</time></trkpt><trkpt lat="43.6888875" lon="11.7213069"><ele>809.2</ele><time>2026-04-18T14:05:45.464Z</time></trkpt><trkpt lat="43.6888335" lon="11.7211794"><ele>811.6</ele><time>2026-04-18T14:05:46.469Z</time></trkpt><trkpt lat="43.6887936" lon="11.7210749"><ele>814.0</ele><time>2026-04-18T14:05:47.462Z</time></trkpt><trkpt lat="43.6887841" lon="11.7209839"><ele>814.0</ele><time>2026-04-18T14:05:48.459Z</time></trkpt><trkpt lat="43.6888515" lon="11.7208361"><ele>814.0</ele><time>2026-04-18T14:05:50.474Z</time></trkpt><trkpt lat="43.6889237" lon="11.7208329"><ele>814.0</ele><time>2026-04-18T14:05:51.459Z</time></trkpt><trkpt lat="43.6890022" lon="11.7208837"><ele>814.0</ele><time>2026-04-18T14:05:52.463Z</time></trkpt><trkpt lat="43.6891084" lon="11.7209718"><ele>814.0</ele><time>2026-04-18T14:05:53.467Z</time></trkpt><trkpt lat="43.6892136" lon="11.7210734"><ele>814.0</ele><time>2026-04-18T14:05:54.466Z</time></trkpt><trkpt lat="43.6893321" lon="11.7211726"><ele>814.0</ele><time>2026-04-18T14:05:55.459Z</time></trkpt><trkpt lat="43.6894546" lon="11.7212737"><ele>814.0</ele><time>2026-04-18T14:05:56.468Z</time></trkpt><trkpt lat="43.6895716" lon="11.7214261"><ele>814.0</ele><time>2026-04-18T14:05:57.46Z</time></trkpt><trkpt lat="43.6896722" lon="11.7216016"><ele>818.6666666666666</ele><time>2026-04-18T14:05:58.464Z</time></trkpt><trkpt lat="43.6897596" lon="11.7217907"><ele>823.3333333333333</ele><time>2026-04-18T14:05:59.458Z</time></trkpt><trkpt lat="43.689846" lon="11.721966"><ele>828.0</ele><time>2026-04-18T14:06:00.464Z</time></trkpt><trkpt lat="43.6899399" lon="11.7221253"><ele>828.0</ele><time>2026-04-18T14:06:01.467Z</time></trkpt><trkpt lat="43.6900407" lon="11.7222886"><ele>828.0</ele><time>2026-04-18T14:06:02.464Z</time></trkpt><trkpt lat="43.6901486" lon="11.7224623"><ele>828.0</ele><time>2026-04-18T14:06:03.462Z</time></trkpt><trkpt lat="43.6902599" lon="11.7226338"><ele>830.5</ele><time>2026-04-18T14:06:04.458Z</time></trkpt><trkpt lat="43.6903651" lon="11.7227942"><ele>833.0</ele><time>2026-04-18T14:06:05.452Z</time></trkpt><trkpt lat="43.6904599" lon="11.7229289"><ele>835.5</ele><time>2026-04-18T14:06:06.459Z</time></trkpt><trkpt lat="43.6905358" lon="11.7230256"><ele>838.0</ele><time>2026-04-18T14:06:07.46Z</time></trkpt><trkpt lat="43.6905949" lon="11.7230973"><ele>837.9999999999999</ele><time>2026-04-18T14:06:08.465Z</time></trkpt><trkpt lat="43.6906594" lon="11.7231495"><ele>838.0</ele><time>2026-04-18T14:06:09.462Z</time></trkpt><trkpt lat="43.6907431" lon="11.7231222"><ele>838.0</ele><time>2026-04-18T14:06:10.458Z</time></trkpt><trkpt lat="43.6907844" lon="11.7230283"><ele>838.0</ele><time>2026-04-18T14:06:11.461Z</time></trkpt><trkpt lat="43.6907679" lon="11.7229175"><ele>837.9999999999999</ele><time>2026-04-18T14:06:12.462Z</time></trkpt><trkpt lat="43.690719" lon="11.7227966"><ele>838.0</ele><time>2026-04-18T14:06:13.458Z</time></trkpt><trkpt lat="43.6906513" lon="11.7226763"><ele>842.25</ele><time>2026-04-18T14:06:14.464Z</time></trkpt><trkpt lat="43.6905924" lon="11.7225537"><ele>846.5</ele><time>2026-04-18T14:06:15.46Z</time></trkpt><trkpt lat="43.6905333" lon="11.7224108"><ele>850.75</ele><time>2026-04-18T14:06:16.458Z</time></trkpt><trkpt lat="43.6904739" lon="11.7222384"><ele>855.0</ele><time>2026-04-18T14:06:17.459Z</time></trkpt><trkpt lat="43.6904144" lon="11.7220338"><ele>859.3333333333333</ele><time>2026-04-18T14:06:18.467Z</time></trkpt><trkpt lat="43.6903538" lon="11.7218045"><ele>863.6666666666666</ele><time>2026-04-18T14:06:19.464Z</time></trkpt><trkpt lat="43.6902871" lon="11.7215616"><ele>868.0</ele><time>2026-04-18T14:06:20.461Z</time></trkpt><trkpt lat="43.6902238" lon="11.7213089"><ele>863.0</ele><time>2026-04-18T14:06:21.464Z</time></trkpt><trkpt lat="43.6901641" lon="11.7210669"><ele>858.0</ele><time>2026-04-18T14:06:22.462Z</time></trkpt><trkpt lat="43.6901185" lon="11.720823"><ele>853.0</ele><time>2026-04-18T14:06:23.465Z</time></trkpt><trkpt lat="43.6900923" lon="11.7206089"><ele>853.0</ele><time>2026-04-18T14:06:24.464Z</time></trkpt><trkpt lat="43.690071" lon="11.7204139"><ele>853.0</ele><time>2026-04-18T14:06:25.457Z</time></trkpt><trkpt lat="43.6900518" lon="11.7202188"><ele>853.0</ele><time>2026-04-18T14:06:26.466Z</time></trkpt><trkpt lat="43.6900593" lon="11.7200189"><ele>853.0</ele><time>2026-04-18T14:06:27.459Z</time></trkpt><trkpt lat="43.6900913" lon="11.7198188"><ele>853.5999999999999</ele><time>2026-04-18T14:06:28.469Z</time></trkpt><trkpt lat="43.6901296" lon="11.719653"><ele>854.1999999999999</ele><time>2026-04-18T14:06:29.475Z</time></trkpt><trkpt lat="43.6901822" lon="11.7195336"><ele>854.8</ele><time>2026-04-18T14:06:30.462Z</time></trkpt><trkpt lat="43.69025" lon="11.7194349"><ele>855.4</ele><time>2026-04-18T14:06:31.463Z</time></trkpt><trkpt lat="43.690348" lon="11.7193742"><ele>856.0</ele><time>2026-04-18T14:06:32.468Z</time></trkpt><trkpt lat="43.6904562" lon="11.7193353"><ele>857.0</ele><time>2026-04-18T14:06:33.475Z</time></trkpt><trkpt lat="43.6905876" lon="11.7193327"><ele>858.0</ele><time>2026-04-18T14:06:34.466Z</time></trkpt><trkpt lat="43.6907384" lon="11.7193319"><ele>859.0</ele><time>2026-04-18T14:06:35.46Z</time></trkpt><trkpt lat="43.6908993" lon="11.7193386"><ele>860.0</ele><time>2026-04-18T14:06:36.467Z</time></trkpt><trkpt lat="43.6910708" lon="11.719338"><ele>862.6666666666667</ele><time>2026-04-18T14:06:37.448Z</time></trkpt><trkpt lat="43.6912397" lon="11.7193167"><ele>865.3333333333333</ele><time>2026-04-18T14:06:38.462Z</time></trkpt><trkpt lat="43.6914071" lon="11.7192831"><ele>868.0</ele><time>2026-04-18T14:06:39.474Z</time></trkpt><trkpt lat="43.691558" lon="11.7192308"><ele>868.0</ele><time>2026-04-18T14:06:40.467Z</time></trkpt><trkpt lat="43.6916682" lon="11.7191855"><ele>868.0</ele><time>2026-04-18T14:06:41.456Z</time></trkpt><trkpt lat="43.6917533" lon="11.7190799"><ele>868.0</ele><time>2026-04-18T14:06:42.463Z</time></trkpt><trkpt lat="43.6918085" lon="11.7189505"><ele>868.0</ele><time>2026-04-18T14:06:43.465Z</time></trkpt><trkpt lat="43.691867" lon="11.7188034"><ele>868.5</ele><time>2026-04-18T14:06:44.453Z</time></trkpt><trkpt lat="43.6919362" lon="11.718675"><ele>869.0</ele><time>2026-04-18T14:06:45.468Z</time></trkpt><trkpt lat="43.69202" lon="11.7185549"><ele>869.5</ele><time>2026-04-18T14:06:46.464Z</time></trkpt><trkpt lat="43.6921152" lon="11.7184452"><ele>870.0</ele><time>2026-04-18T14:06:47.464Z</time></trkpt><trkpt lat="43.6922012" lon="11.718347"><ele>869.6</ele><time>2026-04-18T14:06:48.472Z</time></trkpt><trkpt lat="43.692281" lon="11.7182575"><ele>869.2</ele><time>2026-04-18T14:06:49.471Z</time></trkpt><trkpt lat="43.6923504" lon="11.7181491"><ele>868.8</ele><time>2026-04-18T14:06:50.461Z</time></trkpt><trkpt lat="43.6924086" lon="11.7180208"><ele>868.4</ele><time>2026-04-18T14:06:51.47Z</time></trkpt><trkpt lat="43.6924479" lon="11.7178493"><ele>868.0</ele><time>2026-04-18T14:06:52.469Z</time></trkpt><trkpt lat="43.6924621" lon="11.7176552"><ele>868.0</ele><time>2026-04-18T14:06:53.46Z</time></trkpt><trkpt lat="43.6924409" lon="11.7174627"><ele>868.0</ele><time>2026-04-18T14:06:54.468Z</time></trkpt><trkpt lat="43.6923774" lon="11.7172686"><ele>868.0</ele><time>2026-04-18T14:06:55.467Z</time></trkpt><trkpt lat="43.6923126" lon="11.7170635"><ele>868.3333333333333</ele><time>2026-04-18T14:06:56.464Z</time></trkpt><trkpt lat="43.6922397" lon="11.7168488"><ele>868.6666666666667</ele><time>2026-04-18T14:06:57.47Z</time></trkpt><trkpt lat="43.6921704" lon="11.7166299"><ele>869.0</ele><time>2026-04-18T14:06:58.46Z</time></trkpt><trkpt lat="43.6920808" lon="11.7164347"><ele>869.0</ele><time>2026-04-18T14:06:59.465Z</time></trkpt><trkpt lat="43.6919907" lon="11.7162529"><ele>869.0</ele><time>2026-04-18T14:07:00.46Z</time></trkpt><trkpt lat="43.6919147" lon="11.7160802"><ele>869.0</ele><time>2026-04-18T14:07:01.464Z</time></trkpt><trkpt lat="43.6918689" lon="11.7159152"><ele>869.0</ele><time>2026-04-18T14:07:02.462Z</time></trkpt><trkpt lat="43.6918622" lon="11.7157386"><ele>870.0</ele><time>2026-04-18T14:07:03.458Z</time></trkpt><trkpt lat="43.6918755" lon="11.7155761"><ele>871.0000000000001</ele><time>2026-04-18T14:07:04.46Z</time></trkpt><trkpt lat="43.6919021" lon="11.7154216"><ele>872.0000000000001</ele><time>2026-04-18T14:07:05.457Z</time></trkpt><trkpt lat="43.6919236" lon="11.7152758"><ele>873.0</ele><time>2026-04-18T14:07:06.461Z</time></trkpt><trkpt lat="43.6919116" lon="11.7151355"><ele>874.0</ele><time>2026-04-18T14:07:07.465Z</time></trkpt><trkpt lat="43.6918594" lon="11.7149884"><ele>876.75</ele><time>2026-04-18T14:07:08.505Z</time></trkpt><trkpt lat="43.6917706" lon="11.7148665"><ele>879.5</ele><time>2026-04-18T14:07:09.466Z</time></trkpt><trkpt lat="43.69166" lon="11.7147465"><ele>882.25</ele><time>2026-04-18T14:07:10.462Z</time></trkpt><trkpt lat="43.6915386" lon="11.7146105"><ele>885.0</ele><time>2026-04-18T14:07:11.466Z</time></trkpt><trkpt lat="43.6914155" lon="11.7144752"><ele>887.75</ele><time>2026-04-18T14:07:12.463Z</time></trkpt><trkpt lat="43.6912962" lon="11.714331"><ele>890.5</ele><time>2026-04-18T14:07:13.468Z</time></trkpt><trkpt lat="43.6911843" lon="11.7141957"><ele>893.25</ele><time>2026-04-18T14:07:14.46Z</time></trkpt><trkpt lat="43.6910803" lon="11.7140648"><ele>896.0</ele><time>2026-04-18T14:07:15.462Z</time></trkpt><trkpt lat="43.6909812" lon="11.7139736"><ele>896.0</ele><time>2026-04-18T14:07:16.451Z</time></trkpt><trkpt lat="43.6908674" lon="11.7139127"><ele>896.0</ele><time>2026-04-18T14:07:17.46Z</time></trkpt><trkpt lat="43.6907441" lon="11.7139"><ele>896.0</ele><time>2026-04-18T14:07:18.463Z</time></trkpt><trkpt lat="43.6906092" lon="11.7139176"><ele>896.0</ele><time>2026-04-18T14:07:19.458Z</time></trkpt><trkpt lat="43.6904692" lon="11.7139357"><ele>896.0</ele><time>2026-04-18T14:07:20.462Z</time></trkpt><trkpt lat="43.6903353" lon="11.7139279"><ele>896.0</ele><time>2026-04-18T14:07:21.467Z</time></trkpt><trkpt lat="43.6902139" lon="11.7138614"><ele>896.0</ele><time>2026-04-18T14:07:22.468Z</time></trkpt><trkpt lat="43.6901152" lon="11.7137629"><ele>896.0</ele><time>2026-04-18T14:07:23.458Z</time></trkpt><trkpt lat="43.690025" lon="11.7136224"><ele>898.75</ele><time>2026-04-18T14:07:24.46Z</time></trkpt><trkpt lat="43.689966" lon="11.7134743"><ele>901.5</ele><time>2026-04-18T14:07:25.461Z</time></trkpt><trkpt lat="43.6899337" lon="11.7133073"><ele>904.25</ele><time>2026-04-18T14:07:26.46Z</time></trkpt><trkpt lat="43.6899097" lon="11.7131308"><ele>907.0</ele><time>2026-04-18T14:07:27.461Z</time></trkpt><trkpt lat="43.6898957" lon="11.7129536"><ele>907.0</ele><time>2026-04-18T14:07:28.463Z</time></trkpt><trkpt lat="43.6898695" lon="11.7127883"><ele>907.0</ele><time>2026-04-18T14:07:29.465Z</time></trkpt><trkpt lat="43.6898346" lon="11.7126458"><ele>907.0</ele><time>2026-04-18T14:07:30.473Z</time></trkpt><trkpt lat="43.6897729" lon="11.7125299"><ele>907.0</ele><time>2026-04-18T14:07:31.462Z</time></trkpt><trkpt lat="43.6896973" lon="11.7124499"><ele>907.0</ele><time>2026-04-18T14:07:32.468Z</time></trkpt><trkpt lat="43.6896017" lon="11.7124069"><ele>907.75</ele><time>2026-04-18T14:07:33.461Z</time></trkpt><trkpt lat="43.6894937" lon="11.7123912"><ele>908.5</ele><time>2026-04-18T14:07:34.466Z</time></trkpt><trkpt lat="43.6893817" lon="11.7123879"><ele>909.25</ele><time>2026-04-18T14:07:35.46Z</time></trkpt><trkpt lat="43.6892697" lon="11.7123243"><ele>910.0</ele><time>2026-04-18T14:07:36.457Z</time></trkpt><trkpt lat="43.6891676" lon="11.7122005"><ele>910.0</ele><time>2026-04-18T14:07:37.463Z</time></trkpt><trkpt lat="43.6891011" lon="11.7120474"><ele>910.0</ele><time>2026-04-18T14:07:38.457Z</time></trkpt><trkpt lat="43.689032" lon="11.7118491"><ele>910.0</ele><time>2026-04-18T14:07:39.459Z</time></trkpt><trkpt lat="43.6889789" lon="11.7116622"><ele>910.0</ele><time>2026-04-18T14:07:40.463Z</time></trkpt><trkpt lat="43.6889529" lon="11.711501"><ele>911.75</ele><time>2026-04-18T14:07:41.461Z</time></trkpt><trkpt lat="43.6889622" lon="11.7113504"><ele>913.5</ele><time>2026-04-18T14:07:42.47Z</time></trkpt><trkpt lat="43.6890133" lon="11.711218"><ele>915.25</ele><time>2026-04-18T14:07:43.458Z</time></trkpt><trkpt lat="43.6891195" lon="11.7110799"><ele>917.0</ele><time>2026-04-18T14:07:44.468Z</time></trkpt><trkpt lat="43.6892687" lon="11.7109602"><ele>919.0</ele><time>2026-04-18T14:07:45.468Z</time></trkpt><trkpt lat="43.6894441" lon="11.7108464"><ele>921.0</ele><time>2026-04-18T14:07:46.464Z</time></trkpt><trkpt lat="43.6896428" lon="11.7107068"><ele>923.0</ele><time>2026-04-18T14:07:47.466Z</time></trkpt><trkpt lat="43.6898405" lon="11.7105658"><ele>923.0</ele><time>2026-04-18T14:07:48.462Z</time></trkpt><trkpt lat="43.690018" lon="11.7104427"><ele>923.0</ele><time>2026-04-18T14:07:49.467Z</time></trkpt><trkpt lat="43.6901599" lon="11.7103212"><ele>923.0</ele><time>2026-04-18T14:07:50.459Z</time></trkpt><trkpt lat="43.6902585" lon="11.7102136"><ele>923.5</ele><time>2026-04-18T14:07:51.462Z</time></trkpt><trkpt lat="43.6903214" lon="11.7100658"><ele>924.0</ele><time>2026-04-18T14:07:52.469Z</time></trkpt><trkpt lat="43.6903589" lon="11.7098885"><ele>924.5</ele><time>2026-04-18T14:07:53.48Z</time></trkpt><trkpt lat="43.6903728" lon="11.7096705"><ele>925.0</ele><time>2026-04-18T14:07:54.474Z</time></trkpt><trkpt lat="43.6903596" lon="11.7094517"><ele>926.75</ele><time>2026-04-18T14:07:55.463Z</time></trkpt><trkpt lat="43.6903513" lon="11.7092301"><ele>928.5</ele><time>2026-04-18T14:07:56.465Z</time></trkpt><trkpt lat="43.6903495" lon="11.7090276"><ele>930.25</ele><time>2026-04-18T14:07:57.46Z</time></trkpt><trkpt lat="43.6903708" lon="11.7088379"><ele>932.0</ele><time>2026-04-18T14:07:58.465Z</time></trkpt><trkpt lat="43.6904076" lon="11.7086664"><ele>932.0</ele><time>2026-04-18T14:07:59.469Z</time></trkpt><trkpt lat="43.6904674" lon="11.7085101"><ele>932.0</ele><time>2026-04-18T14:08:00.471Z</time></trkpt><trkpt lat="43.6905481" lon="11.7083564"><ele>932.0</ele><time>2026-04-18T14:08:01.472Z</time></trkpt><trkpt lat="43.6906397" lon="11.7082249"><ele>932.0</ele><time>2026-04-18T14:08:02.459Z</time></trkpt><trkpt lat="43.6907318" lon="11.7081329"><ele>932.0</ele><time>2026-04-18T14:08:03.456Z</time></trkpt><trkpt lat="43.6908134" lon="11.7080441"><ele>932.0</ele><time>2026-04-18T14:08:04.462Z</time></trkpt><trkpt lat="43.69088" lon="11.7079342"><ele>932.0</ele><time>2026-04-18T14:08:05.468Z</time></trkpt><trkpt lat="43.6909205" lon="11.7078077"><ele>932.0</ele><time>2026-04-18T14:08:06.448Z</time></trkpt><trkpt lat="43.6909515" lon="11.7076862"><ele>932.0</ele><time>2026-04-18T14:08:07.45Z</time></trkpt><trkpt lat="43.690974" lon="11.7075797"><ele>931.2</ele><time>2026-04-18T14:08:08.457Z</time></trkpt><trkpt lat="43.6909776" lon="11.707463"><ele>930.4000000000001</ele><time>2026-04-18T14:08:09.458Z</time></trkpt><trkpt lat="43.6909564" lon="11.7073392"><ele>929.5999999999999</ele><time>2026-04-18T14:08:10.467Z</time></trkpt><trkpt lat="43.6909313" lon="11.70719"><ele>928.8</ele><time>2026-04-18T14:08:11.461Z</time></trkpt><trkpt lat="43.6908951" lon="11.7070295"><ele>928.0</ele><time>2026-04-18T14:08:12.476Z</time></trkpt><trkpt lat="43.6908543" lon="11.7068811"><ele>928.0</ele><time>2026-04-18T14:08:13.453Z</time></trkpt><trkpt lat="43.6908362" lon="11.7067423"><ele>928.0</ele><time>2026-04-18T14:08:14.469Z</time></trkpt><trkpt lat="43.6908415" lon="11.706593"><ele>928.0</ele><time>2026-04-18T14:08:15.473Z</time></trkpt><trkpt lat="43.6908881" lon="11.7064427"><ele>928.0</ele><time>2026-04-18T14:08:16.461Z</time></trkpt><trkpt lat="43.6909608" lon="11.7063023"><ele>928.0</ele><time>2026-04-18T14:08:17.484Z</time></trkpt><trkpt lat="43.6910545" lon="11.7061962"><ele>928.0</ele><time>2026-04-18T14:08:18.479Z</time></trkpt><trkpt lat="43.6911554" lon="11.7060899"><ele>928.0</ele><time>2026-04-18T14:08:19.455Z</time></trkpt><trkpt lat="43.6912224" lon="11.705953"><ele>928.0</ele><time>2026-04-18T14:08:20.451Z</time></trkpt><trkpt lat="43.6912584" lon="11.705796"><ele>935.0</ele><time>2026-04-18T14:08:21.48Z</time></trkpt><trkpt lat="43.6912647" lon="11.7055983"><ele>942.0</ele><time>2026-04-18T14:08:22.466Z</time></trkpt><trkpt lat="43.6912363" lon="11.7053901"><ele>949.0</ele><time>2026-04-18T14:08:23.474Z</time></trkpt><trkpt lat="43.6911741" lon="11.7051579"><ele>945.0</ele><time>2026-04-18T14:08:24.463Z</time></trkpt><trkpt lat="43.691087" lon="11.7048991"><ele>941.0</ele><time>2026-04-18T14:08:25.477Z</time></trkpt><trkpt lat="43.6909898" lon="11.7046338"><ele>937.0</ele><time>2026-04-18T14:08:26.466Z</time></trkpt><trkpt lat="43.6909034" lon="11.7043474"><ele>937.0</ele><time>2026-04-18T14:08:27.466Z</time></trkpt><trkpt lat="43.6908134" lon="11.7040509"><ele>937.0</ele><time>2026-04-18T14:08:28.478Z</time></trkpt><trkpt lat="43.6907255" lon="11.7037418"><ele>946.0</ele><time>2026-04-18T14:08:29.468Z</time></trkpt><trkpt lat="43.690631" lon="11.7034379"><ele>955.0</ele><time>2026-04-18T14:08:30.478Z</time></trkpt><trkpt lat="43.6905433" lon="11.7031454"><ele>955.0</ele><time>2026-04-18T14:08:31.481Z</time></trkpt><trkpt lat="43.6904547" lon="11.7028762"><ele>955.0</ele><time>2026-04-18T14:08:32.469Z</time></trkpt><trkpt lat="43.6903799" lon="11.7026272"><ele>955.0</ele><time>2026-04-18T14:08:33.467Z</time></trkpt><trkpt lat="43.6903166" lon="11.7024116"><ele>956.5</ele><time>2026-04-18T14:08:34.463Z</time></trkpt><trkpt lat="43.6902682" lon="11.7022368"><ele>958.0</ele><time>2026-04-18T14:08:35.467Z</time></trkpt><trkpt lat="43.6902328" lon="11.7020813"><ele>959.5</ele><time>2026-04-18T14:08:36.465Z</time></trkpt><trkpt lat="43.6902094" lon="11.7019137"><ele>961.0</ele><time>2026-04-18T14:08:37.457Z</time></trkpt><trkpt lat="43.6901835" lon="11.701737"><ele>953.0</ele><time>2026-04-18T14:08:38.48Z</time></trkpt><trkpt lat="43.6901317" lon="11.7015328"><ele>945.0</ele><time>2026-04-18T14:08:39.468Z</time></trkpt><trkpt lat="43.6900535" lon="11.7013275"><ele>937.0</ele><time>2026-04-18T14:08:40.466Z</time></trkpt><trkpt lat="43.6899742" lon="11.7011581"><ele>938.75</ele><time>2026-04-18T14:08:41.471Z</time></trkpt><trkpt lat="43.6899338" lon="11.7010028"><ele>940.5</ele><time>2026-04-18T14:08:42.46Z</time></trkpt><trkpt lat="43.6899266" lon="11.7008489"><ele>942.25</ele><time>2026-04-18T14:08:43.464Z</time></trkpt><trkpt lat="43.689951" lon="11.7006819"><ele>944.0</ele><time>2026-04-18T14:08:44.471Z</time></trkpt><trkpt lat="43.6899978" lon="11.7005327"><ele>944.0</ele><time>2026-04-18T14:08:45.463Z</time></trkpt><trkpt lat="43.6900742" lon="11.7003848"><ele>944.0</ele><time>2026-04-18T14:08:46.465Z</time></trkpt><trkpt lat="43.690177" lon="11.7002581"><ele>944.0</ele><time>2026-04-18T14:08:47.466Z</time></trkpt><trkpt lat="43.6902981" lon="11.7001377"><ele>944.0</ele><time>2026-04-18T14:08:48.465Z</time></trkpt><trkpt lat="43.690422" lon="11.7000138"><ele>944.0</ele><time>2026-04-18T14:08:49.474Z</time></trkpt><trkpt lat="43.6905249" lon="11.6999013"><ele>944.0</ele><time>2026-04-18T14:08:50.473Z</time></trkpt><trkpt lat="43.6905986" lon="11.6997768"><ele>944.0</ele><time>2026-04-18T14:08:51.472Z</time></trkpt><trkpt lat="43.6906679" lon="11.6996322"><ele>944.0</ele><time>2026-04-18T14:08:52.474Z</time></trkpt><trkpt lat="43.6907271" lon="11.6994446"><ele>944.3333333333334</ele><time>2026-04-18T14:08:53.48Z</time></trkpt><trkpt lat="43.6907675" lon="11.6992361"><ele>944.6666666666667</ele><time>2026-04-18T14:08:54.475Z</time></trkpt><trkpt lat="43.6907848" lon="11.6990252"><ele>945.0</ele><time>2026-04-18T14:08:55.472Z</time></trkpt><trkpt lat="43.6908285" lon="11.6988231"><ele>945.0</ele><time>2026-04-18T14:08:56.468Z</time></trkpt><trkpt lat="43.6909061" lon="11.6986477"><ele>945.0</ele><time>2026-04-18T14:08:57.461Z</time></trkpt><trkpt lat="43.6910094" lon="11.698491"><ele>945.0</ele><time>2026-04-18T14:08:58.467Z</time></trkpt><trkpt lat="43.6911415" lon="11.6983303"><ele>951.0</ele><time>2026-04-18T14:08:59.462Z</time></trkpt><trkpt lat="43.6912629" lon="11.698165"><ele>957.0</ele><time>2026-04-18T14:09:00.477Z</time></trkpt><trkpt lat="43.6913555" lon="11.6980038"><ele>963.0</ele><time>2026-04-18T14:09:01.472Z</time></trkpt><trkpt lat="43.6914021" lon="11.6978085"><ele>962.6666666666667</ele><time>2026-04-18T14:09:02.463Z</time></trkpt><trkpt lat="43.6914389" lon="11.6975642"><ele>962.3333333333334</ele><time>2026-04-18T14:09:03.477Z</time></trkpt><trkpt lat="43.6914543" lon="11.6973212"><ele>962.0</ele><time>2026-04-18T14:09:04.47Z</time></trkpt><trkpt lat="43.691475" lon="11.697084"><ele>962.3333333333334</ele><time>2026-04-18T14:09:05.465Z</time></trkpt><trkpt lat="43.6914985" lon="11.6968801"><ele>962.6666666666667</ele><time>2026-04-18T14:09:06.46Z</time></trkpt><trkpt lat="43.6915454" lon="11.6966949"><ele>963.0</ele><time>2026-04-18T14:09:07.468Z</time></trkpt><trkpt lat="43.691601" lon="11.6964885"><ele>963.0</ele><time>2026-04-18T14:09:08.479Z</time></trkpt><trkpt lat="43.6916668" lon="11.6962656"><ele>963.0</ele><time>2026-04-18T14:09:09.46Z</time></trkpt><trkpt lat="43.6917373" lon="11.6960443"><ele>963.0</ele><time>2026-04-18T14:09:10.461Z</time></trkpt><trkpt lat="43.6917988" lon="11.695836"><ele>962.3333333333333</ele><time>2026-04-18T14:09:11.464Z</time></trkpt><trkpt lat="43.6918507" lon="11.6956292"><ele>961.6666666666666</ele><time>2026-04-18T14:09:12.46Z</time></trkpt><trkpt lat="43.6918745" lon="11.6954308"><ele>961.0</ele><time>2026-04-18T14:09:13.464Z</time></trkpt><trkpt lat="43.6918696" lon="11.6952178"><ele>960.3333333333333</ele><time>2026-04-18T14:09:14.46Z</time></trkpt><trkpt lat="43.6918683" lon="11.6949924"><ele>959.6666666666667</ele><time>2026-04-18T14:09:15.457Z</time></trkpt><trkpt lat="43.6918631" lon="11.6947612"><ele>959.0</ele><time>2026-04-18T14:09:16.455Z</time></trkpt><trkpt lat="43.6918471" lon="11.6945298"><ele>960.0</ele><time>2026-04-18T14:09:17.465Z</time></trkpt><trkpt lat="43.6918336" lon="11.6943097"><ele>961.0</ele><time>2026-04-18T14:09:18.467Z</time></trkpt><trkpt lat="43.6918269" lon="11.6940996"><ele>962.0</ele><time>2026-04-18T14:09:19.455Z</time></trkpt><trkpt lat="43.6918217" lon="11.6938783"><ele>962.0</ele><time>2026-04-18T14:09:20.471Z</time></trkpt><trkpt lat="43.6918261" lon="11.6936482"><ele>962.0</ele><time>2026-04-18T14:09:21.467Z</time></trkpt><trkpt lat="43.6918364" lon="11.6934059"><ele>962.0</ele><time>2026-04-18T14:09:22.461Z</time></trkpt><trkpt lat="43.6918426" lon="11.6931852"><ele>963.25</ele><time>2026-04-18T14:09:23.455Z</time></trkpt><trkpt lat="43.6918362" lon="11.6930023"><ele>964.5</ele><time>2026-04-18T14:09:24.464Z</time></trkpt><trkpt lat="43.6918259" lon="11.6928366"><ele>965.75</ele><time>2026-04-18T14:09:25.455Z</time></trkpt><trkpt lat="43.6917889" lon="11.6927061"><ele>967.0</ele><time>2026-04-18T14:09:26.459Z</time></trkpt><trkpt lat="43.6917248" lon="11.6925943"><ele>968.0</ele><time>2026-04-18T14:09:27.461Z</time></trkpt><trkpt lat="43.6916353" lon="11.6925272"><ele>969.0</ele><time>2026-04-18T14:09:28.458Z</time></trkpt><trkpt lat="43.6915481" lon="11.6924679"><ele>970.0</ele><time>2026-04-18T14:09:29.474Z</time></trkpt><trkpt lat="43.6914715" lon="11.6923766"><ele>971.0</ele><time>2026-04-18T14:09:30.456Z</time></trkpt><trkpt lat="43.6914135" lon="11.6922657"><ele>972.0</ele><time>2026-04-18T14:09:31.455Z</time></trkpt><trkpt lat="43.6913842" lon="11.692136"><ele>972.0</ele><time>2026-04-18T14:09:32.461Z</time></trkpt><trkpt lat="43.691397" lon="11.6919925"><ele>972.0</ele><time>2026-04-18T14:09:33.471Z</time></trkpt><trkpt lat="43.6914081" lon="11.6918022"><ele>972.0</ele><time>2026-04-18T14:09:34.461Z</time></trkpt><trkpt lat="43.6913991" lon="11.6915978"><ele>972.0</ele><time>2026-04-18T14:09:35.46Z</time></trkpt><trkpt lat="43.6913586" lon="11.6913969"><ele>968.6666666666667</ele><time>2026-04-18T14:09:36.468Z</time></trkpt><trkpt lat="43.691268" lon="11.6912038"><ele>965.3333333333334</ele><time>2026-04-18T14:09:37.459Z</time></trkpt><trkpt lat="43.6911621" lon="11.6910366"><ele>962.0</ele><time>2026-04-18T14:09:38.459Z</time></trkpt><trkpt lat="43.6910871" lon="11.6908421"><ele>962.0</ele><time>2026-04-18T14:09:39.456Z</time></trkpt><trkpt lat="43.6910447" lon="11.6906196"><ele>962.0</ele><time>2026-04-18T14:09:40.464Z</time></trkpt><trkpt lat="43.6910023" lon="11.6903901"><ele>962.0</ele><time>2026-04-18T14:09:41.474Z</time></trkpt><trkpt lat="43.6909414" lon="11.6901702"><ele>966.0</ele><time>2026-04-18T14:09:42.464Z</time></trkpt><trkpt lat="43.690876" lon="11.6899553"><ele>970.0</ele><time>2026-04-18T14:09:43.457Z</time></trkpt><trkpt lat="43.6908059" lon="11.6897343"><ele>974.0</ele><time>2026-04-18T14:09:44.464Z</time></trkpt><trkpt lat="43.6907398" lon="11.6895253"><ele>976.5</ele><time>2026-04-18T14:09:45.474Z</time></trkpt><trkpt lat="43.6906816" lon="11.6893305"><ele>979.0</ele><time>2026-04-18T14:09:46.469Z</time></trkpt><trkpt lat="43.6906273" lon="11.6891387"><ele>981.5</ele><time>2026-04-18T14:09:47.481Z</time></trkpt><trkpt lat="43.6905662" lon="11.6889668"><ele>984.0</ele><time>2026-04-18T14:09:48.478Z</time></trkpt><trkpt lat="43.690498" lon="11.6888015"><ele>984.0</ele><time>2026-04-18T14:09:49.459Z</time></trkpt><trkpt lat="43.6903999" lon="11.6886485"><ele>984.0</ele><time>2026-04-18T14:09:50.471Z</time></trkpt><trkpt lat="43.6902757" lon="11.6885123"><ele>984.0</ele><time>2026-04-18T14:09:51.462Z</time></trkpt><trkpt lat="43.6901391" lon="11.6883858"><ele>985.0</ele><time>2026-04-18T14:09:52.454Z</time></trkpt><trkpt lat="43.690008" lon="11.6882702"><ele>986.0</ele><time>2026-04-18T14:09:53.458Z</time></trkpt><trkpt lat="43.6898773" lon="11.688172"><ele>987.0</ele><time>2026-04-18T14:09:54.465Z</time></trkpt><trkpt lat="43.6897372" lon="11.6881076"><ele>987.0</ele><time>2026-04-18T14:09:55.472Z</time></trkpt><trkpt lat="43.6895919" lon="11.6880702"><ele>987.0</ele><time>2026-04-18T14:09:56.456Z</time></trkpt><trkpt lat="43.6894349" lon="11.6880259"><ele>987.0</ele><time>2026-04-18T14:09:57.477Z</time></trkpt><trkpt lat="43.6892709" lon="11.687982"><ele>986.3333333333333</ele><time>2026-04-18T14:09:58.457Z</time></trkpt><trkpt lat="43.6890974" lon="11.6879669"><ele>985.6666666666666</ele><time>2026-04-18T14:09:59.46Z</time></trkpt><trkpt lat="43.6889081" lon="11.6879695"><ele>985.0</ele><time>2026-04-18T14:10:00.456Z</time></trkpt><trkpt lat="43.688722" lon="11.687977"><ele>986.3333333333333</ele><time>2026-04-18T14:10:01.473Z</time></trkpt><trkpt lat="43.6885493" lon="11.6879878"><ele>987.6666666666667</ele><time>2026-04-18T14:10:02.467Z</time></trkpt><trkpt lat="43.6883843" lon="11.6879898"><ele>989.0</ele><time>2026-04-18T14:10:03.466Z</time></trkpt><trkpt lat="43.6882167" lon="11.6879772"><ele>989.0</ele><time>2026-04-18T14:10:04.471Z</time></trkpt><trkpt lat="43.6880589" lon="11.6879465"><ele>989.0</ele><time>2026-04-18T14:10:05.463Z</time></trkpt><trkpt lat="43.6879095" lon="11.6878966"><ele>989.0</ele><time>2026-04-18T14:10:06.472Z</time></trkpt><trkpt lat="43.6877847" lon="11.687841"><ele>989.0</ele><time>2026-04-18T14:10:07.466Z</time></trkpt><trkpt lat="43.6876833" lon="11.6877608"><ele>994.5</ele><time>2026-04-18T14:10:08.459Z</time></trkpt><trkpt lat="43.6875985" lon="11.687668"><ele>1000.0</ele><time>2026-04-18T14:10:09.464Z</time></trkpt><trkpt lat="43.6875199" lon="11.6875329"><ele>1005.5</ele><time>2026-04-18T14:10:10.468Z</time></trkpt><trkpt lat="43.6874557" lon="11.6873599"><ele>1011.0</ele><time>2026-04-18T14:10:11.462Z</time></trkpt><trkpt lat="43.6873938" lon="11.6871793"><ele>1011.0</ele><time>2026-04-18T14:10:12.458Z</time></trkpt><trkpt lat="43.6873328" lon="11.6870006"><ele>1011.0</ele><time>2026-04-18T14:10:13.454Z</time></trkpt><trkpt lat="43.6872728" lon="11.6868011"><ele>1011.0</ele><time>2026-04-18T14:10:14.463Z</time></trkpt><trkpt lat="43.6872111" lon="11.6866053"><ele>1013.5</ele><time>2026-04-18T14:10:15.46Z</time></trkpt><trkpt lat="43.6871501" lon="11.6864149"><ele>1016.0</ele><time>2026-04-18T14:10:16.463Z</time></trkpt><trkpt lat="43.6871143" lon="11.6862474"><ele>1018.5</ele><time>2026-04-18T14:10:17.467Z</time></trkpt><trkpt lat="43.6870914" lon="11.6860766"><ele>1021.0</ele><time>2026-04-18T14:10:18.475Z</time></trkpt><trkpt lat="43.6870961" lon="11.6859266"><ele>1021.0</ele><time>2026-04-18T14:10:19.46Z</time></trkpt><trkpt lat="43.6871306" lon="11.6857986"><ele>1020.9999999999999</ele><time>2026-04-18T14:10:20.46Z</time></trkpt><trkpt lat="43.6871754" lon="11.6856874"><ele>1020.9999999999999</ele><time>2026-04-18T14:10:21.462Z</time></trkpt><trkpt lat="43.68723" lon="11.6855643"><ele>1021.0</ele><time>2026-04-18T14:10:22.471Z</time></trkpt><trkpt lat="43.6873109" lon="11.6854218"><ele>1021.0</ele><time>2026-04-18T14:10:23.458Z</time></trkpt><trkpt lat="43.6873926" lon="11.6852519"><ele>1021.0</ele><time>2026-04-18T14:10:24.455Z</time></trkpt><trkpt lat="43.6874857" lon="11.6850633"><ele>1021.0</ele><time>2026-04-18T14:10:25.465Z</time></trkpt><trkpt lat="43.687576" lon="11.6848437"><ele>1021.0</ele><time>2026-04-18T14:10:26.466Z</time></trkpt><trkpt lat="43.6876722" lon="11.6846274"><ele>1018.6666666666666</ele><time>2026-04-18T14:10:27.471Z</time></trkpt><trkpt lat="43.6877522" lon="11.6844191"><ele>1016.3333333333333</ele><time>2026-04-18T14:10:28.476Z</time></trkpt><trkpt lat="43.6878207" lon="11.6841993"><ele>1014.0</ele><time>2026-04-18T14:10:29.462Z</time></trkpt><trkpt lat="43.6878719" lon="11.6839429"><ele>1024.3333333333333</ele><time>2026-04-18T14:10:30.461Z</time></trkpt><trkpt lat="43.6879031" lon="11.6836467"><ele>1034.6666666666665</ele><time>2026-04-18T14:10:31.462Z</time></trkpt><trkpt lat="43.6879211" lon="11.6833513"><ele>1045.0</ele><time>2026-04-18T14:10:32.454Z</time></trkpt><trkpt lat="43.6879301" lon="11.6830846"><ele>1046.0</ele><time>2026-04-18T14:10:33.463Z</time></trkpt><trkpt lat="43.6879159" lon="11.6828399"><ele>1047.0</ele><time>2026-04-18T14:10:34.442Z</time></trkpt><trkpt lat="43.687867" lon="11.6826242"><ele>1048.0</ele><time>2026-04-18T14:10:35.463Z</time></trkpt><trkpt lat="43.6878181" lon="11.6824457"><ele>1044.6666666666665</ele><time>2026-04-18T14:10:36.451Z</time></trkpt><trkpt lat="43.6877147" lon="11.6822706"><ele>1041.3333333333333</ele><time>2026-04-18T14:10:37.452Z</time></trkpt><trkpt lat="43.6876" lon="11.68208"><ele>1038.0</ele><time>2026-04-18T14:10:38.46Z</time></trkpt><trkpt lat="43.6874769" lon="11.6818942"><ele>1038.0</ele><time>2026-04-18T14:10:39.455Z</time></trkpt><trkpt lat="43.6873897" lon="11.6817338"><ele>1038.0</ele><time>2026-04-18T14:10:40.458Z</time></trkpt><trkpt lat="43.6873145" lon="11.6815864"><ele>1038.0</ele><time>2026-04-18T14:10:41.47Z</time></trkpt><trkpt lat="43.6872444" lon="11.6814223"><ele>1038.0</ele><time>2026-04-18T14:10:42.468Z</time></trkpt><trkpt lat="43.6871943" lon="11.6812213"><ele>1044.3333333333333</ele><time>2026-04-18T14:10:43.462Z</time></trkpt><trkpt lat="43.6871416" lon="11.6809878"><ele>1050.6666666666665</ele><time>2026-04-18T14:10:44.454Z</time></trkpt><trkpt lat="43.6870794" lon="11.6807548"><ele>1057.0</ele><time>2026-04-18T14:10:45.457Z</time></trkpt><trkpt lat="43.6870094" lon="11.6805109"><ele>1055.75</ele><time>2026-04-18T14:10:46.446Z</time></trkpt><trkpt lat="43.6869198" lon="11.6802961"><ele>1054.5</ele><time>2026-04-18T14:10:47.459Z</time></trkpt><trkpt lat="43.6868461" lon="11.6801212"><ele>1053.25</ele><time>2026-04-18T14:10:48.458Z</time></trkpt><trkpt lat="43.6867931" lon="11.6799763"><ele>1052.0</ele><time>2026-04-18T14:10:49.466Z</time></trkpt><trkpt lat="43.686719" lon="11.6798698"><ele>1052.0</ele><time>2026-04-18T14:10:50.465Z</time></trkpt><trkpt lat="43.6866186" lon="11.6798122"><ele>1052.0</ele><time>2026-04-18T14:10:51.458Z</time></trkpt><trkpt lat="43.6865039" lon="11.6798108"><ele>1052.0</ele><time>2026-04-18T14:10:52.475Z</time></trkpt><trkpt lat="43.6863895" lon="11.6799171"><ele>1052.0</ele><time>2026-04-18T14:10:53.462Z</time></trkpt><trkpt lat="43.6862913" lon="11.6800382"><ele>1052.0</ele><time>2026-04-18T14:10:54.469Z</time></trkpt><trkpt lat="43.6861865" lon="11.6801398"><ele>1052.0</ele><time>2026-04-18T14:10:55.45Z</time></trkpt><trkpt lat="43.6860887" lon="11.6801792"><ele>1052.0</ele><time>2026-04-18T14:10:56.448Z</time></trkpt><trkpt lat="43.6860073" lon="11.6801852"><ele>1052.0</ele><time>2026-04-18T14:10:57.458Z</time></trkpt><trkpt lat="43.6859197" lon="11.6801488"><ele>1052.0</ele><time>2026-04-18T14:10:58.458Z</time></trkpt><trkpt lat="43.6858201" lon="11.6800658"><ele>1055.0</ele><time>2026-04-18T14:10:59.462Z</time></trkpt><trkpt lat="43.6856911" lon="11.6799452"><ele>1058.0</ele><time>2026-04-18T14:11:00.461Z</time></trkpt><trkpt lat="43.6855579" lon="11.6797964"><ele>1061.0</ele><time>2026-04-18T14:11:01.459Z</time></trkpt><trkpt lat="43.6854191" lon="11.6796611"><ele>1061.0</ele><time>2026-04-18T14:11:02.45Z</time></trkpt><trkpt lat="43.685264" lon="11.67953"><ele>1061.0</ele><time>2026-04-18T14:11:03.475Z</time></trkpt><trkpt lat="43.6850917" lon="11.6794353"><ele>1061.0</ele><time>2026-04-18T14:11:04.469Z</time></trkpt><trkpt lat="43.6849055" lon="11.6793927"><ele>1060.3333333333335</ele><time>2026-04-18T14:11:05.454Z</time></trkpt><trkpt lat="43.6847268" lon="11.6794277"><ele>1059.6666666666667</ele><time>2026-04-18T14:11:06.457Z</time></trkpt><trkpt lat="43.6845728" lon="11.6794755"><ele>1059.0</ele><time>2026-04-18T14:11:07.453Z</time></trkpt><trkpt lat="43.6844479" lon="11.679513"><ele>1058.25</ele><time>2026-04-18T14:11:08.462Z</time></trkpt><trkpt lat="43.6843314" lon="11.6795139"><ele>1057.5</ele><time>2026-04-18T14:11:09.456Z</time></trkpt><trkpt lat="43.6842237" lon="11.679472"><ele>1056.75</ele><time>2026-04-18T14:11:10.474Z</time></trkpt><trkpt lat="43.6841458" lon="11.6793942"><ele>1056.0</ele><time>2026-04-18T14:11:11.459Z</time></trkpt><trkpt lat="43.6840755" lon="11.6792276"><ele>1061.0</ele><time>2026-04-18T14:11:12.459Z</time></trkpt><trkpt lat="43.6840192" lon="11.6790337"><ele>1066.0</ele><time>2026-04-18T14:11:13.465Z</time></trkpt><trkpt lat="43.683949" lon="11.6788177"><ele>1071.0</ele><time>2026-04-18T14:11:14.464Z</time></trkpt><trkpt lat="43.6838825" lon="11.6785881"><ele>1075.3333333333333</ele><time>2026-04-18T14:11:15.453Z</time></trkpt><trkpt lat="43.6838142" lon="11.678381"><ele>1079.6666666666665</ele><time>2026-04-18T14:11:16.471Z</time></trkpt><trkpt lat="43.6837713" lon="11.6781661"><ele>1084.0</ele><time>2026-04-18T14:11:17.464Z</time></trkpt><trkpt lat="43.6837502" lon="11.6779451"><ele>1087.0</ele><time>2026-04-18T14:11:18.452Z</time></trkpt><trkpt lat="43.6837426" lon="11.677718"><ele>1090.0</ele><time>2026-04-18T14:11:19.459Z</time></trkpt><trkpt lat="43.6837643" lon="11.6774674"><ele>1093.0</ele><time>2026-04-18T14:11:20.472Z</time></trkpt><trkpt lat="43.6837747" lon="11.6771881"><ele>1095.3333333333333</ele><time>2026-04-18T14:11:21.455Z</time></trkpt><trkpt lat="43.6837756" lon="11.6769176"><ele>1097.6666666666667</ele><time>2026-04-18T14:11:22.466Z</time></trkpt><trkpt lat="43.6837765" lon="11.6766538"><ele>1100.0</ele><time>2026-04-18T14:11:23.461Z</time></trkpt><trkpt lat="43.6837625" lon="11.676398"><ele>1100.0</ele><time>2026-04-18T14:11:24.467Z</time></trkpt><trkpt lat="43.6837261" lon="11.676157"><ele>1100.0</ele><time>2026-04-18T14:11:25.456Z</time></trkpt><trkpt lat="43.6836292" lon="11.6759452"><ele>1100.0</ele><time>2026-04-18T14:11:26.458Z</time></trkpt><trkpt lat="43.6834994" lon="11.6757335"><ele>1102.3333333333335</ele><time>2026-04-18T14:11:27.448Z</time></trkpt><trkpt lat="43.6833411" lon="11.6755387"><ele>1104.6666666666667</ele><time>2026-04-18T14:11:28.456Z</time></trkpt><trkpt lat="43.683176" lon="11.6753882"><ele>1107.0</ele><time>2026-04-18T14:11:29.456Z</time></trkpt><trkpt lat="43.6830273" lon="11.6752663"><ele>1107.0</ele><time>2026-04-18T14:11:30.458Z</time></trkpt><trkpt lat="43.6828844" lon="11.6751673"><ele>1107.0</ele><time>2026-04-18T14:11:31.46Z</time></trkpt><trkpt lat="43.6827509" lon="11.6750796"><ele>1107.0</ele><time>2026-04-18T14:11:32.463Z</time></trkpt><trkpt lat="43.6826351" lon="11.6750085"><ele>1107.0</ele><time>2026-04-18T14:11:33.461Z</time></trkpt><trkpt lat="43.6825389" lon="11.6749375"><ele>1103.8333333333333</ele><time>2026-04-18T14:11:34.453Z</time></trkpt><trkpt lat="43.6824685" lon="11.6748794"><ele>1100.6666666666667</ele><time>2026-04-18T14:11:35.46Z</time></trkpt><trkpt lat="43.6824051" lon="11.6748469"><ele>1097.5</ele><time>2026-04-18T14:11:36.458Z</time></trkpt><trkpt lat="43.6823398" lon="11.6747823"><ele>1094.3333333333335</ele><time>2026-04-18T14:11:37.464Z</time></trkpt><trkpt lat="43.6823047" lon="11.6746889"><ele>1091.1666666666667</ele><time>2026-04-18T14:11:38.472Z</time></trkpt><trkpt lat="43.6822976" lon="11.6745907"><ele>1088.0</ele><time>2026-04-18T14:11:39.454Z</time></trkpt><trkpt lat="43.682303" lon="11.6744706"><ele>1089.4</ele><time>2026-04-18T14:11:40.46Z</time></trkpt><trkpt lat="43.6823282" lon="11.6743444"><ele>1090.8</ele><time>2026-04-18T14:11:41.462Z</time></trkpt><trkpt lat="43.6823786" lon="11.6742244"><ele>1092.2</ele><time>2026-04-18T14:11:42.45Z</time></trkpt><trkpt lat="43.6824403" lon="11.6740987"><ele>1093.6</ele><time>2026-04-18T14:11:43.463Z</time></trkpt><trkpt lat="43.6824951" lon="11.6739341"><ele>1095.0</ele><time>2026-04-18T14:11:44.468Z</time></trkpt><trkpt lat="43.6825202" lon="11.6737097"><ele>1097.6666666666667</ele><time>2026-04-18T14:11:45.459Z</time></trkpt><trkpt lat="43.6825185" lon="11.6734722"><ele>1100.3333333333335</ele><time>2026-04-18T14:11:46.455Z</time></trkpt><trkpt lat="43.6825187" lon="11.6732072"><ele>1103.0</ele><time>2026-04-18T14:11:47.463Z</time></trkpt><trkpt lat="43.6825263" lon="11.6729416"><ele>1104.0</ele><time>2026-04-18T14:11:48.466Z</time></trkpt><trkpt lat="43.6825261" lon="11.6727058"><ele>1105.0</ele><time>2026-04-18T14:11:49.47Z</time></trkpt><trkpt lat="43.6824922" lon="11.6725473"><ele>1106.0</ele><time>2026-04-18T14:11:50.464Z</time></trkpt><trkpt lat="43.6824232" lon="11.6724236"><ele>1107.0</ele><time>2026-04-18T14:11:51.45Z</time></trkpt><trkpt lat="43.6823485" lon="11.6723666"><ele>1107.0</ele><time>2026-04-18T14:11:52.455Z</time></trkpt><trkpt lat="43.6822529" lon="11.6723758"><ele>1107.0</ele><time>2026-04-18T14:11:53.47Z</time></trkpt><trkpt lat="43.6821224" lon="11.672441"><ele>1107.0</ele><time>2026-04-18T14:11:54.459Z</time></trkpt><trkpt lat="43.6819748" lon="11.6725539"><ele>1107.0</ele><time>2026-04-18T14:11:55.462Z</time></trkpt><trkpt lat="43.6818143" lon="11.6726629"><ele>1105.0</ele><time>2026-04-18T14:11:56.476Z</time></trkpt><trkpt lat="43.6816064" lon="11.6727569"><ele>1103.0</ele><time>2026-04-18T14:11:57.458Z</time></trkpt><trkpt lat="43.6813553" lon="11.6728424"><ele>1106.5</ele><time>2026-04-18T14:11:58.465Z</time></trkpt><trkpt lat="43.6810922" lon="11.67293"><ele>1110.0</ele><time>2026-04-18T14:11:59.474Z</time></trkpt><trkpt lat="43.6808376" lon="11.6730278"><ele>1110.0</ele><time>2026-04-18T14:12:00.464Z</time></trkpt><trkpt lat="43.6806259" lon="11.6731114"><ele>1110.0</ele><time>2026-04-18T14:12:01.452Z</time></trkpt><trkpt lat="43.6804286" lon="11.6731889"><ele>1110.0</ele><time>2026-04-18T14:12:02.465Z</time></trkpt><trkpt lat="43.6802473" lon="11.673253"><ele>1115.0</ele><time>2026-04-18T14:12:03.456Z</time></trkpt><trkpt lat="43.6800833" lon="11.6732927"><ele>1120.0</ele><time>2026-04-18T14:12:04.464Z</time></trkpt><trkpt lat="43.6799381" lon="11.6733065"><ele>1125.0</ele><time>2026-04-18T14:12:05.449Z</time></trkpt><trkpt lat="43.679795" lon="11.6733274"><ele>1125.0</ele><time>2026-04-18T14:12:06.463Z</time></trkpt><trkpt lat="43.6796819" lon="11.6733934"><ele>1125.0</ele><time>2026-04-18T14:12:07.458Z</time></trkpt><trkpt lat="43.6796044" lon="11.6735164"><ele>1125.0</ele><time>2026-04-18T14:12:08.454Z</time></trkpt><trkpt lat="43.6795724" lon="11.6736804"><ele>1125.0</ele><time>2026-04-18T14:12:09.457Z</time></trkpt><trkpt lat="43.6795615" lon="11.673897"><ele>1124.25</ele><time>2026-04-18T14:12:10.452Z</time></trkpt><trkpt lat="43.6795295" lon="11.6740873"><ele>1123.5</ele><time>2026-04-18T14:12:11.46Z</time></trkpt><trkpt lat="43.6794598" lon="11.6742451"><ele>1122.75</ele><time>2026-04-18T14:12:12.447Z</time></trkpt><trkpt lat="43.6793692" lon="11.6743943"><ele>1122.0</ele><time>2026-04-18T14:12:13.459Z</time></trkpt><trkpt lat="43.6792364" lon="11.6745257"><ele>1122.0</ele><time>2026-04-18T14:12:14.462Z</time></trkpt><trkpt lat="43.6790756" lon="11.6746371"><ele>1122.0</ele><time>2026-04-18T14:12:15.457Z</time></trkpt><trkpt lat="43.678924" lon="11.6747283"><ele>1122.0</ele><time>2026-04-18T14:12:16.46Z</time></trkpt><trkpt lat="43.6787865" lon="11.6748088"><ele>1122.0</ele><time>2026-04-18T14:12:17.459Z</time></trkpt><trkpt lat="43.6786647" lon="11.6748557"><ele>1122.0</ele><time>2026-04-18T14:12:18.461Z</time></trkpt><trkpt lat="43.6785403" lon="11.674855"><ele>1122.0</ele><time>2026-04-18T14:12:19.463Z</time></trkpt><trkpt lat="43.6784288" lon="11.6747911"><ele>1122.0</ele><time>2026-04-18T14:12:20.452Z</time></trkpt><trkpt lat="43.6783466" lon="11.6746911"><ele>1124.0</ele><time>2026-04-18T14:12:21.462Z</time></trkpt><trkpt lat="43.6782724" lon="11.674555"><ele>1126.0</ele><time>2026-04-18T14:12:22.465Z</time></trkpt><trkpt lat="43.6782198" lon="11.6743721"><ele>1128.0</ele><time>2026-04-18T14:12:23.451Z</time></trkpt><trkpt lat="43.6781753" lon="11.6741517"><ele>1130.0</ele><time>2026-04-18T14:12:24.451Z</time></trkpt><trkpt lat="43.6781333" lon="11.6739316"><ele>1134.0</ele><time>2026-04-18T14:12:25.464Z</time></trkpt><trkpt lat="43.6780979" lon="11.6737424"><ele>1138.0</ele><time>2026-04-18T14:12:26.46Z</time></trkpt><trkpt lat="43.6780616" lon="11.6735755"><ele>1142.0</ele><time>2026-04-18T14:12:27.458Z</time></trkpt><trkpt lat="43.6780357" lon="11.6733921"><ele>1146.0</ele><time>2026-04-18T14:12:28.473Z</time></trkpt><trkpt lat="43.6780394" lon="11.6732044"><ele>1150.3333333333333</ele><time>2026-04-18T14:12:29.467Z</time></trkpt><trkpt lat="43.6780613" lon="11.6729833"><ele>1154.6666666666665</ele><time>2026-04-18T14:12:30.456Z</time></trkpt><trkpt lat="43.6781007" lon="11.6727632"><ele>1159.0</ele><time>2026-04-18T14:12:31.45Z</time></trkpt><trkpt lat="43.678111" lon="11.6725612"><ele>1161.25</ele><time>2026-04-18T14:12:32.467Z</time></trkpt><trkpt lat="43.6780915" lon="11.6723706"><ele>1163.5</ele><time>2026-04-18T14:12:33.465Z</time></trkpt><trkpt lat="43.6780477" lon="11.6721694"><ele>1165.75</ele><time>2026-04-18T14:12:34.458Z</time></trkpt><trkpt lat="43.6780055" lon="11.6719765"><ele>1168.0</ele><time>2026-04-18T14:12:35.453Z</time></trkpt><trkpt lat="43.6779489" lon="11.671774"><ele>1164.75</ele><time>2026-04-18T14:12:36.459Z</time></trkpt><trkpt lat="43.6778657" lon="11.6716196"><ele>1161.5</ele><time>2026-04-18T14:12:37.464Z</time></trkpt><trkpt lat="43.6777435" lon="11.6714894"><ele>1158.25</ele><time>2026-04-18T14:12:38.461Z</time></trkpt><trkpt lat="43.6776306" lon="11.6713724"><ele>1155.0</ele><time>2026-04-18T14:12:39.454Z</time></trkpt><trkpt lat="43.6775353" lon="11.6712352"><ele>1159.5</ele><time>2026-04-18T14:12:40.448Z</time></trkpt><trkpt lat="43.6774676" lon="11.6710501"><ele>1164.0</ele><time>2026-04-18T14:12:41.456Z</time></trkpt><trkpt lat="43.6774307" lon="11.6708445"><ele>1168.5</ele><time>2026-04-18T14:12:42.449Z</time></trkpt><trkpt lat="43.6773964" lon="11.6706593"><ele>1173.0</ele><time>2026-04-18T14:12:43.455Z</time></trkpt><trkpt lat="43.6773197" lon="11.6705187"><ele>1173.0</ele><time>2026-04-18T14:12:44.454Z</time></trkpt><trkpt lat="43.6772059" lon="11.6704265"><ele>1173.0</ele><time>2026-04-18T14:12:45.459Z</time></trkpt><trkpt lat="43.6770854" lon="11.6703682"><ele>1173.0</ele><time>2026-04-18T14:12:46.452Z</time></trkpt><trkpt lat="43.6769766" lon="11.670284"><ele>1173.0</ele><time>2026-04-18T14:12:47.462Z</time></trkpt><trkpt lat="43.6768852" lon="11.6701236"><ele>1174.25</ele><time>2026-04-18T14:12:48.457Z</time></trkpt><trkpt lat="43.6768082" lon="11.6699526"><ele>1175.5</ele><time>2026-04-18T14:12:49.461Z</time></trkpt><trkpt lat="43.6767651" lon="11.6697619"><ele>1176.75</ele><time>2026-04-18T14:12:50.451Z</time></trkpt><trkpt lat="43.6767536" lon="11.6695593"><ele>1178.0</ele><time>2026-04-18T14:12:51.463Z</time></trkpt><trkpt lat="43.6767428" lon="11.6693164"><ele>1178.0</ele><time>2026-04-18T14:12:52.458Z</time></trkpt><trkpt lat="43.6767377" lon="11.669055"><ele>1178.0</ele><time>2026-04-18T14:12:53.46Z</time></trkpt><trkpt lat="43.6767269" lon="11.6688018"><ele>1178.0</ele><time>2026-04-18T14:12:54.458Z</time></trkpt><trkpt lat="43.676715" lon="11.6685459"><ele>1180.6666666666667</ele><time>2026-04-18T14:12:55.467Z</time></trkpt><trkpt lat="43.6767028" lon="11.6682943"><ele>1183.3333333333333</ele><time>2026-04-18T14:12:56.448Z</time></trkpt><trkpt lat="43.6766969" lon="11.6680503"><ele>1186.0</ele><time>2026-04-18T14:12:57.466Z</time></trkpt><trkpt lat="43.6767072" lon="11.6678179"><ele>1189.3333333333333</ele><time>2026-04-18T14:12:58.459Z</time></trkpt><trkpt lat="43.676714" lon="11.6676035"><ele>1192.6666666666667</ele><time>2026-04-18T14:12:59.448Z</time></trkpt><trkpt lat="43.6767093" lon="11.6674044"><ele>1196.0</ele><time>2026-04-18T14:13:00.46Z</time></trkpt><trkpt lat="43.6766566" lon="11.6671713"><ele>1200.6666666666667</ele><time>2026-04-18T14:13:01.452Z</time></trkpt><trkpt lat="43.6765505" lon="11.6669146"><ele>1205.3333333333333</ele><time>2026-04-18T14:13:02.454Z</time></trkpt><trkpt lat="43.6764488" lon="11.6666696"><ele>1210.0</ele><time>2026-04-18T14:13:03.453Z</time></trkpt><trkpt lat="43.6763639" lon="11.6664496"><ele>1210.0</ele><time>2026-04-18T14:13:04.461Z</time></trkpt><trkpt lat="43.6762822" lon="11.6662363"><ele>1210.0</ele><time>2026-04-18T14:13:05.453Z</time></trkpt><trkpt lat="43.6762041" lon="11.6660422"><ele>1210.0</ele><time>2026-04-18T14:13:06.461Z</time></trkpt><trkpt lat="43.6761272" lon="11.6658535"><ele>1208.6666666666665</ele><time>2026-04-18T14:13:07.461Z</time></trkpt><trkpt lat="43.6760125" lon="11.6657138"><ele>1207.3333333333333</ele><time>2026-04-18T14:13:08.463Z</time></trkpt><trkpt lat="43.6758679" lon="11.6656297"><ele>1206.0</ele><time>2026-04-18T14:13:09.464Z</time></trkpt><trkpt lat="43.6756982" lon="11.6655815"><ele>1206.0</ele><time>2026-04-18T14:13:10.444Z</time></trkpt><trkpt lat="43.6755442" lon="11.6655892"><ele>1206.0</ele><time>2026-04-18T14:13:11.463Z</time></trkpt><trkpt lat="43.6753819" lon="11.6656007"><ele>1206.0</ele><time>2026-04-18T14:13:12.469Z</time></trkpt><trkpt lat="43.6752104" lon="11.6656111"><ele>1206.75</ele><time>2026-04-18T14:13:13.46Z</time></trkpt><trkpt lat="43.6750491" lon="11.6656203"><ele>1207.5</ele><time>2026-04-18T14:13:14.465Z</time></trkpt><trkpt lat="43.6749125" lon="11.6656098"><ele>1208.25</ele><time>2026-04-18T14:13:15.466Z</time></trkpt><trkpt lat="43.6747833" lon="11.6655852"><ele>1209.0</ele><time>2026-04-18T14:13:16.454Z</time></trkpt><trkpt lat="43.6746632" lon="11.665526"><ele>1209.0</ele><time>2026-04-18T14:13:17.467Z</time></trkpt><trkpt lat="43.6745508" lon="11.6654045"><ele>1209.0</ele><time>2026-04-18T14:13:18.451Z</time></trkpt><trkpt lat="43.6744611" lon="11.6652185"><ele>1209.0</ele><time>2026-04-18T14:13:19.468Z</time></trkpt><trkpt lat="43.6744004" lon="11.6650045"><ele>1213.0</ele><time>2026-04-18T14:13:20.458Z</time></trkpt><trkpt lat="43.6743443" lon="11.6647816"><ele>1217.0</ele><time>2026-04-18T14:13:21.47Z</time></trkpt><trkpt lat="43.6742908" lon="11.6645813"><ele>1221.0</ele><time>2026-04-18T14:13:22.455Z</time></trkpt><trkpt lat="43.6742411" lon="11.6644279"><ele>1225.0</ele><time>2026-04-18T14:13:23.457Z</time></trkpt><trkpt lat="43.6741827" lon="11.6643039"><ele>1226.8</ele><time>2026-04-18T14:13:24.46Z</time></trkpt><trkpt lat="43.6741111" lon="11.6641967"><ele>1228.6</ele><time>2026-04-18T14:13:25.478Z</time></trkpt><trkpt lat="43.6740191" lon="11.6641299"><ele>1230.4</ele><time>2026-04-18T14:13:26.454Z</time></trkpt><trkpt lat="43.6739112" lon="11.6641485"><ele>1232.2</ele><time>2026-04-18T14:13:27.453Z</time></trkpt><trkpt lat="43.6738367" lon="11.6642306"><ele>1234.0</ele><time>2026-04-18T14:13:28.456Z</time></trkpt><trkpt lat="43.6737815" lon="11.6643607"><ele>1232.2</ele><time>2026-04-18T14:13:29.449Z</time></trkpt><trkpt lat="43.6737618" lon="11.6645258"><ele>1230.4</ele><time>2026-04-18T14:13:30.454Z</time></trkpt><trkpt lat="43.6737707" lon="11.6646933"><ele>1228.6</ele><time>2026-04-18T14:13:31.462Z</time></trkpt><trkpt lat="43.6737579" lon="11.6648315"><ele>1226.8</ele><time>2026-04-18T14:13:32.463Z</time></trkpt><trkpt lat="43.6737328" lon="11.6649364"><ele>1225.0</ele><time>2026-04-18T14:13:33.456Z</time></trkpt><trkpt lat="43.6736334" lon="11.6649789"><ele>1225.0</ele><time>2026-04-18T14:13:35.462Z</time></trkpt><trkpt lat="43.6735818" lon="11.6649252"><ele>1225.0</ele><time>2026-04-18T14:13:36.468Z</time></trkpt><trkpt lat="43.6735589" lon="11.664842"><ele>1225.0</ele><time>2026-04-18T14:13:37.457Z</time></trkpt><trkpt lat="43.6735756" lon="11.6647086"><ele>1225.0</ele><time>2026-04-18T14:13:38.462Z</time></trkpt><trkpt lat="43.6736217" lon="11.6645199"><ele>1225.0</ele><time>2026-04-18T14:13:39.452Z</time></trkpt><trkpt lat="43.6736606" lon="11.6643269"><ele>1227.25</ele><time>2026-04-18T14:13:40.45Z</time></trkpt><trkpt lat="43.6736744" lon="11.6641378"><ele>1229.5</ele><time>2026-04-18T14:13:41.463Z</time></trkpt><trkpt lat="43.6736673" lon="11.6639723"><ele>1231.75</ele><time>2026-04-18T14:13:42.453Z</time></trkpt><trkpt lat="43.6736681" lon="11.663802"><ele>1234.0</ele><time>2026-04-18T14:13:43.451Z</time></trkpt><trkpt lat="43.6737332" lon="11.6636527"><ele>1238.3333333333333</ele><time>2026-04-18T14:13:44.447Z</time></trkpt><trkpt lat="43.6738496" lon="11.6635067"><ele>1242.6666666666667</ele><time>2026-04-18T14:13:45.451Z</time></trkpt><trkpt lat="43.6739813" lon="11.6633587"><ele>1247.0</ele><time>2026-04-18T14:13:46.46Z</time></trkpt><trkpt lat="43.6741044" lon="11.6632357"><ele>1247.0</ele><time>2026-04-18T14:13:47.465Z</time></trkpt><trkpt lat="43.674213" lon="11.6631371"><ele>1247.0</ele><time>2026-04-18T14:13:48.47Z</time></trkpt><trkpt lat="43.6743162" lon="11.6631077"><ele>1247.0</ele><time>2026-04-18T14:13:49.456Z</time></trkpt><trkpt lat="43.6744253" lon="11.6631255"><ele>1247.0</ele><time>2026-04-18T14:13:50.466Z</time></trkpt><trkpt lat="43.6745151" lon="11.6632466"><ele>1248.75</ele><time>2026-04-18T14:13:51.459Z</time></trkpt><trkpt lat="43.6746007" lon="11.6633676"><ele>1250.5</ele><time>2026-04-18T14:13:52.46Z</time></trkpt><trkpt lat="43.6746783" lon="11.6634613"><ele>1252.25</ele><time>2026-04-18T14:13:53.457Z</time></trkpt><trkpt lat="43.6747813" lon="11.6635134"><ele>1254.0</ele><time>2026-04-18T14:13:54.455Z</time></trkpt><trkpt lat="43.6749042" lon="11.6635057"><ele>1254.0</ele><time>2026-04-18T14:13:55.462Z</time></trkpt><trkpt lat="43.6750591" lon="11.6634416"><ele>1254.0</ele><time>2026-04-18T14:13:56.463Z</time></trkpt><trkpt lat="43.6752198" lon="11.6633505"><ele>1254.0</ele><time>2026-04-18T14:13:57.452Z</time></trkpt><trkpt lat="43.6753899" lon="11.6632483"><ele>1255.0</ele><time>2026-04-18T14:13:58.458Z</time></trkpt><trkpt lat="43.6755605" lon="11.6631668"><ele>1256.0</ele><time>2026-04-18T14:13:59.461Z</time></trkpt><trkpt lat="43.6757389" lon="11.6631086"><ele>1257.0</ele><time>2026-04-18T14:14:00.456Z</time></trkpt><trkpt lat="43.6759046" lon="11.6630374"><ele>1257.0</ele><time>2026-04-18T14:14:01.45Z</time></trkpt><trkpt lat="43.6760592" lon="11.662985"><ele>1257.0</ele><time>2026-04-18T14:14:02.464Z</time></trkpt><trkpt lat="43.6762025" lon="11.6629498"><ele>1257.0</ele><time>2026-04-18T14:14:03.46Z</time></trkpt><trkpt lat="43.6763381" lon="11.6629706"><ele>1257.0</ele><time>2026-04-18T14:14:04.471Z</time></trkpt><trkpt lat="43.6764686" lon="11.6630838"><ele>1262.3333333333333</ele><time>2026-04-18T14:14:05.467Z</time></trkpt><trkpt lat="43.6765921" lon="11.6632243"><ele>1267.6666666666665</ele><time>2026-04-18T14:14:06.454Z</time></trkpt><trkpt lat="43.676695" lon="11.6633782"><ele>1273.0</ele><time>2026-04-18T14:14:07.454Z</time></trkpt><trkpt lat="43.6767958" lon="11.663528"><ele>1272.75</ele><time>2026-04-18T14:14:08.462Z</time></trkpt><trkpt lat="43.6769019" lon="11.6636294"><ele>1272.5</ele><time>2026-04-18T14:14:09.446Z</time></trkpt><trkpt lat="43.6770109" lon="11.6636508"><ele>1272.25</ele><time>2026-04-18T14:14:10.47Z</time></trkpt><trkpt lat="43.6771273" lon="11.6636907"><ele>1272.0</ele><time>2026-04-18T14:14:11.456Z</time></trkpt><trkpt lat="43.6772461" lon="11.6637839"><ele>1272.0</ele><time>2026-04-18T14:14:12.451Z</time></trkpt><trkpt lat="43.6773516" lon="11.6639325"><ele>1272.0</ele><time>2026-04-18T14:14:13.469Z</time></trkpt><trkpt lat="43.6774129" lon="11.6641139"><ele>1272.0</ele><time>2026-04-18T14:14:14.459Z</time></trkpt><trkpt lat="43.6774449" lon="11.6642657"><ele>1272.0</ele><time>2026-04-18T14:14:15.459Z</time></trkpt><trkpt lat="43.6774866" lon="11.6643749"><ele>1272.0</ele><time>2026-04-18T14:14:16.462Z</time></trkpt><trkpt lat="43.6775737" lon="11.664441"><ele>1272.0</ele><time>2026-04-18T14:14:17.456Z</time></trkpt><trkpt lat="43.6776731" lon="11.6644388"><ele>1272.0</ele><time>2026-04-18T14:14:18.456Z</time></trkpt><trkpt lat="43.6777752" lon="11.664376"><ele>1272.0</ele><time>2026-04-18T14:14:19.459Z</time></trkpt><trkpt lat="43.677842" lon="11.6642637"><ele>1272.0</ele><time>2026-04-18T14:14:20.457Z</time></trkpt><trkpt lat="43.6778956" lon="11.6640823"><ele>1271.0</ele><time>2026-04-18T14:14:21.464Z</time></trkpt><trkpt lat="43.6779326" lon="11.6638778"><ele>1270.0</ele><time>2026-04-18T14:14:22.46Z</time></trkpt><trkpt lat="43.6779637" lon="11.6636534"><ele>1269.0</ele><time>2026-04-18T14:14:23.457Z</time></trkpt><trkpt lat="43.6779997" lon="11.6634365"><ele>1272.0</ele><time>2026-04-18T14:14:24.459Z</time></trkpt><trkpt lat="43.6780377" lon="11.6632476"><ele>1275.0</ele><time>2026-04-18T14:14:25.463Z</time></trkpt><trkpt lat="43.6780952" lon="11.6630976"><ele>1278.0</ele><time>2026-04-18T14:14:26.446Z</time></trkpt><trkpt lat="43.6781815" lon="11.6629702"><ele>1281.0</ele><time>2026-04-18T14:14:27.463Z</time></trkpt><trkpt lat="43.6783024" lon="11.6628683"><ele>1281.0</ele><time>2026-04-18T14:14:28.458Z</time></trkpt><trkpt lat="43.6784347" lon="11.6627776"><ele>1281.0</ele><time>2026-04-18T14:14:29.471Z</time></trkpt><trkpt lat="43.6785507" lon="11.6626984"><ele>1281.0</ele><time>2026-04-18T14:14:30.47Z</time></trkpt><trkpt lat="43.6786339" lon="11.6626154"><ele>1281.0</ele><time>2026-04-18T14:14:31.469Z</time></trkpt><trkpt lat="43.6786638" lon="11.6625163"><ele>1281.0</ele><time>2026-04-18T14:14:32.465Z</time></trkpt><trkpt lat="43.6786442" lon="11.6624289"><ele>1281.0</ele><time>2026-04-18T14:14:33.458Z</time></trkpt><trkpt lat="43.6785727" lon="11.6623799"><ele>1281.0</ele><time>2026-04-18T14:14:34.465Z</time></trkpt><trkpt lat="43.6784748" lon="11.6623703"><ele>1281.0</ele><time>2026-04-18T14:14:35.459Z</time></trkpt><trkpt lat="43.6783838" lon="11.6623914"><ele>1281.0</ele><time>2026-04-18T14:14:36.465Z</time></trkpt><trkpt lat="43.6782774" lon="11.6624383"><ele>1281.0</ele><time>2026-04-18T14:14:37.456Z</time></trkpt><trkpt lat="43.6781553" lon="11.6624952"><ele>1281.0</ele><time>2026-04-18T14:14:38.463Z</time></trkpt><trkpt lat="43.6780171" lon="11.6625793"><ele>1281.0</ele><time>2026-04-18T14:14:39.459Z</time></trkpt><trkpt lat="43.6778836" lon="11.6627271"><ele>1281.0</ele><time>2026-04-18T14:14:40.459Z</time></trkpt><trkpt lat="43.6777773" lon="11.6629267"><ele>1283.0</ele><time>2026-04-18T14:14:41.45Z</time></trkpt><trkpt lat="43.6777091" lon="11.6630972"><ele>1285.0</ele><time>2026-04-18T14:14:42.458Z</time></trkpt><trkpt lat="43.6776487" lon="11.663201"><ele>1287.0</ele><time>2026-04-18T14:14:43.456Z</time></trkpt><trkpt lat="43.677565" lon="11.663266"><ele>1289.0</ele><time>2026-04-18T14:14:44.46Z</time></trkpt><trkpt lat="43.6774529" lon="11.6632765"><ele>1291.0</ele><time>2026-04-18T14:14:45.47Z</time></trkpt><trkpt lat="43.6773451" lon="11.6632085"><ele>1291.0</ele><time>2026-04-18T14:14:46.46Z</time></trkpt><trkpt lat="43.6772316" lon="11.6630976"><ele>1291.0</ele><time>2026-04-18T14:14:47.463Z</time></trkpt><trkpt lat="43.6771242" lon="11.6629402"><ele>1291.0</ele><time>2026-04-18T14:14:48.464Z</time></trkpt><trkpt lat="43.6770107" lon="11.6627607"><ele>1294.3333333333333</ele><time>2026-04-18T14:14:49.469Z</time></trkpt><trkpt lat="43.6768865" lon="11.6625482"><ele>1297.6666666666667</ele><time>2026-04-18T14:14:50.465Z</time></trkpt><trkpt lat="43.6767566" lon="11.6623253"><ele>1301.0</ele><time>2026-04-18T14:14:51.461Z</time></trkpt><trkpt lat="43.676604" lon="11.6621065"><ele>1311.5</ele><time>2026-04-18T14:14:52.455Z</time></trkpt><trkpt lat="43.6764419" lon="11.66187"><ele>1322.0</ele><time>2026-04-18T14:14:53.457Z</time></trkpt><trkpt lat="43.6762669" lon="11.6616783"><ele>1317.6666666666667</ele><time>2026-04-18T14:14:54.451Z</time></trkpt><trkpt lat="43.6760905" lon="11.6615148"><ele>1313.3333333333333</ele><time>2026-04-18T14:14:55.461Z</time></trkpt><trkpt lat="43.6759075" lon="11.6613551"><ele>1309.0</ele><time>2026-04-18T14:14:56.462Z</time></trkpt><trkpt lat="43.6757231" lon="11.6612095"><ele>1310.5</ele><time>2026-04-18T14:14:57.455Z</time></trkpt><trkpt lat="43.6755279" lon="11.6610515"><ele>1312.0</ele><time>2026-04-18T14:14:58.464Z</time></trkpt><trkpt lat="43.6753254" lon="11.6608954"><ele>1314.0</ele><time>2026-04-18T14:14:59.467Z</time></trkpt><trkpt lat="43.6751255" lon="11.6607418"><ele>1316.0</ele><time>2026-04-18T14:15:00.466Z</time></trkpt><trkpt lat="43.6749267" lon="11.6605729"><ele>1316.0</ele><time>2026-04-18T14:15:01.474Z</time></trkpt><trkpt lat="43.6747347" lon="11.660395"><ele>1316.0</ele><time>2026-04-18T14:15:02.466Z</time></trkpt><trkpt lat="43.6745507" lon="11.6602052"><ele>1321.6666666666667</ele><time>2026-04-18T14:15:03.462Z</time></trkpt><trkpt lat="43.6743883" lon="11.6600123"><ele>1327.3333333333333</ele><time>2026-04-18T14:15:04.464Z</time></trkpt><trkpt lat="43.6742298" lon="11.6598205"><ele>1333.0</ele><time>2026-04-18T14:15:05.457Z</time></trkpt><trkpt lat="43.6740553" lon="11.6596433"><ele>1333.0</ele><time>2026-04-18T14:15:06.468Z</time></trkpt><trkpt lat="43.6738764" lon="11.6594782"><ele>1333.0</ele><time>2026-04-18T14:15:07.456Z</time></trkpt><trkpt lat="43.6736735" lon="11.6593309"><ele>1333.0</ele><time>2026-04-18T14:15:08.473Z</time></trkpt><trkpt lat="43.6734541" lon="11.6592022"><ele>1337.0</ele><time>2026-04-18T14:15:09.457Z</time></trkpt><trkpt lat="43.673237" lon="11.6590722"><ele>1341.0</ele><time>2026-04-18T14:15:10.455Z</time></trkpt><trkpt lat="43.6730274" lon="11.6589731"><ele>1341.0</ele><time>2026-04-18T14:15:11.459Z</time></trkpt><trkpt lat="43.6728443" lon="11.6588766"><ele>1341.0</ele><time>2026-04-18T14:15:12.462Z</time></trkpt><trkpt lat="43.6726749" lon="11.6587555"><ele>1341.0</ele><time>2026-04-18T14:15:13.476Z</time></trkpt><trkpt lat="43.6725116" lon="11.6586066"><ele>1342.3333333333333</ele><time>2026-04-18T14:15:14.469Z</time></trkpt><trkpt lat="43.6723378" lon="11.6584201"><ele>1343.6666666666665</ele><time>2026-04-18T14:15:15.464Z</time></trkpt><trkpt lat="43.672174" lon="11.6582113"><ele>1345.0</ele><time>2026-04-18T14:15:16.469Z</time></trkpt><trkpt lat="43.6720089" lon="11.6580187"><ele>1349.3333333333333</ele><time>2026-04-18T14:15:17.45Z</time></trkpt><trkpt lat="43.6718457" lon="11.6578316"><ele>1353.6666666666667</ele><time>2026-04-18T14:15:18.455Z</time></trkpt><trkpt lat="43.6716763" lon="11.6576683"><ele>1358.0</ele><time>2026-04-18T14:15:19.46Z</time></trkpt><trkpt lat="43.6715097" lon="11.657511"><ele>1358.0</ele><time>2026-04-18T14:15:20.452Z</time></trkpt><trkpt lat="43.6713603" lon="11.6573633"><ele>1358.0</ele><time>2026-04-18T14:15:21.465Z</time></trkpt><trkpt lat="43.6712258" lon="11.6571934"><ele>1358.0</ele><time>2026-04-18T14:15:22.459Z</time></trkpt><trkpt lat="43.6711099" lon="11.6569927"><ele>1362.6666666666667</ele><time>2026-04-18T14:15:23.461Z</time></trkpt><trkpt lat="43.6710274" lon="11.6567944"><ele>1367.3333333333333</ele><time>2026-04-18T14:15:24.46Z</time></trkpt><trkpt lat="43.6709278" lon="11.6566218"><ele>1372.0</ele><time>2026-04-18T14:15:25.475Z</time></trkpt><trkpt lat="43.6708014" lon="11.6564518"><ele>1372.0</ele><time>2026-04-18T14:15:26.467Z</time></trkpt><trkpt lat="43.6706521" lon="11.6562879"><ele>1372.0</ele><time>2026-04-18T14:15:27.463Z</time></trkpt><trkpt lat="43.6705124" lon="11.6561628"><ele>1372.0</ele><time>2026-04-18T14:15:28.469Z</time></trkpt><trkpt lat="43.6703954" lon="11.6560702"><ele>1369.5</ele><time>2026-04-18T14:15:29.468Z</time></trkpt><trkpt lat="43.6702862" lon="11.6559675"><ele>1367.0</ele><time>2026-04-18T14:15:30.468Z</time></trkpt><trkpt lat="43.6702053" lon="11.6558471"><ele>1364.5</ele><time>2026-04-18T14:15:31.463Z</time></trkpt><trkpt lat="43.6701496" lon="11.6557109"><ele>1362.0</ele><time>2026-04-18T14:15:32.451Z</time></trkpt><trkpt lat="43.6701257" lon="11.6555652"><ele>1367.0</ele><time>2026-04-18T14:15:33.46Z</time></trkpt><trkpt lat="43.6701389" lon="11.6554282"><ele>1372.0</ele><time>2026-04-18T14:15:34.468Z</time></trkpt><trkpt lat="43.6701727" lon="11.6552682"><ele>1377.0</ele><time>2026-04-18T14:15:35.458Z</time></trkpt><trkpt lat="43.6702019" lon="11.6550839"><ele>1382.0</ele><time>2026-04-18T14:15:36.461Z</time></trkpt><trkpt lat="43.6702257" lon="11.6549023"><ele>1381.0</ele><time>2026-04-18T14:15:37.461Z</time></trkpt><trkpt lat="43.6702242" lon="11.6547496"><ele>1380.0</ele><time>2026-04-18T14:15:38.465Z</time></trkpt><trkpt lat="43.670177" lon="11.6546003"><ele>1379.0</ele><time>2026-04-18T14:15:39.459Z</time></trkpt><trkpt lat="43.6701021" lon="11.6544849"><ele>1378.0</ele><time>2026-04-18T14:15:40.471Z</time></trkpt><trkpt lat="43.6700034" lon="11.6544293"><ele>1377.0</ele><time>2026-04-18T14:15:41.457Z</time></trkpt><trkpt lat="43.6698971" lon="11.6543987"><ele>1377.0</ele><time>2026-04-18T14:15:42.462Z</time></trkpt><trkpt lat="43.6697822" lon="11.6543768"><ele>1377.0</ele><time>2026-04-18T14:15:43.456Z</time></trkpt><trkpt lat="43.6696524" lon="11.6543728"><ele>1377.0</ele><time>2026-04-18T14:15:44.461Z</time></trkpt><trkpt lat="43.6695241" lon="11.6544138"><ele>1377.0</ele><time>2026-04-18T14:15:45.459Z</time></trkpt><trkpt lat="43.6694259" lon="11.6544896"><ele>1380.5</ele><time>2026-04-18T14:15:46.453Z</time></trkpt><trkpt lat="43.6693683" lon="11.6545547"><ele>1384.0</ele><time>2026-04-18T14:15:47.468Z</time></trkpt><trkpt lat="43.6693114" lon="11.6546071"><ele>1387.5</ele><time>2026-04-18T14:15:48.465Z</time></trkpt><trkpt lat="43.6692562" lon="11.6546541"><ele>1391.0</ele><time>2026-04-18T14:15:49.462Z</time></trkpt><trkpt lat="43.6691839" lon="11.6547246"><ele>1394.5</ele><time>2026-04-18T14:15:51.463Z</time></trkpt><trkpt lat="43.6691152" lon="11.6547618"><ele>1398.0</ele><time>2026-04-18T14:16:21.476Z</time></trkpt><trkpt lat="43.6689926" lon="11.6548461"><ele>1398.0</ele><time>2026-04-18T14:16:23.466Z</time></trkpt><trkpt lat="43.6689" lon="11.6549248"><ele>1398.0</ele><time>2026-04-18T14:16:24.464Z</time></trkpt><trkpt lat="43.6687835" lon="11.654992"><ele>1398.0</ele><time>2026-04-18T14:16:25.457Z</time></trkpt><trkpt lat="43.6686495" lon="11.6550424"><ele>1398.0</ele><time>2026-04-18T14:16:26.457Z</time></trkpt><trkpt lat="43.6684951" lon="11.6551004"><ele>1402.6666666666667</ele><time>2026-04-18T14:16:27.468Z</time></trkpt><trkpt lat="43.6683329" lon="11.6551403"><ele>1407.3333333333335</ele><time>2026-04-18T14:16:28.462Z</time></trkpt><trkpt lat="43.6681705" lon="11.6551897"><ele>1412.0</ele><time>2026-04-18T14:16:29.452Z</time></trkpt><trkpt lat="43.6680275" lon="11.6552446"><ele>1411.0</ele><time>2026-04-18T14:16:30.46Z</time></trkpt><trkpt lat="43.6678951" lon="11.6553"><ele>1410.0</ele><time>2026-04-18T14:16:31.455Z</time></trkpt><trkpt lat="43.6677581" lon="11.6553586"><ele>1409.0</ele><time>2026-04-18T14:16:32.448Z</time></trkpt><trkpt lat="43.6676065" lon="11.6553876"><ele>1408.0</ele><time>2026-04-18T14:16:33.461Z</time></trkpt><trkpt lat="43.6674542" lon="11.6554116"><ele>1408.0</ele><time>2026-04-18T14:16:34.465Z</time></trkpt><trkpt lat="43.6673146" lon="11.6554364"><ele>1408.0</ele><time>2026-04-18T14:16:35.452Z</time></trkpt><trkpt lat="43.6671889" lon="11.6554654"><ele>1408.0</ele><time>2026-04-18T14:16:36.472Z</time></trkpt><trkpt lat="43.667093" lon="11.6554672"><ele>1408.0</ele><time>2026-04-18T14:16:37.47Z</time></trkpt><trkpt lat="43.667008" lon="11.6554568"><ele>1408.0</ele><time>2026-04-18T14:16:38.465Z</time></trkpt><trkpt lat="43.6669386" lon="11.6554239"><ele>1407.1666666666665</ele><time>2026-04-18T14:16:39.462Z</time></trkpt><trkpt lat="43.6668579" lon="11.6553021"><ele>1406.3333333333333</ele><time>2026-04-18T14:16:41.462Z</time></trkpt><trkpt lat="43.6668404" lon="11.6552172"><ele>1405.5</ele><time>2026-04-18T14:16:42.463Z</time></trkpt><trkpt lat="43.6668233" lon="11.6551257"><ele>1404.6666666666667</ele><time>2026-04-18T14:16:43.452Z</time></trkpt><trkpt lat="43.6667786" lon="11.6550074"><ele>1403.8333333333335</ele><time>2026-04-18T14:16:44.463Z</time></trkpt><trkpt lat="43.6667223" lon="11.6549015"><ele>1403.0</ele><time>2026-04-18T14:16:45.458Z</time></trkpt><trkpt lat="43.6666589" lon="11.6548194"><ele>1407.2</ele><time>2026-04-18T14:16:46.464Z</time></trkpt><trkpt lat="43.66658" lon="11.6547521"><ele>1411.4</ele><time>2026-04-18T14:16:47.465Z</time></trkpt><trkpt lat="43.6664858" lon="11.6547113"><ele>1415.6000000000001</ele><time>2026-04-18T14:16:48.478Z</time></trkpt><trkpt lat="43.6663769" lon="11.6547327"><ele>1419.8000000000002</ele><time>2026-04-18T14:16:49.459Z</time></trkpt><trkpt lat="43.6662723" lon="11.6547555"><ele>1424.0</ele><time>2026-04-18T14:16:50.46Z</time></trkpt><trkpt lat="43.6661729" lon="11.6547849"><ele>1423.0</ele><time>2026-04-18T14:16:51.46Z</time></trkpt><trkpt lat="43.6661003" lon="11.6547942"><ele>1422.0</ele><time>2026-04-18T14:16:52.463Z</time></trkpt><trkpt lat="43.6659856" lon="11.6547282"><ele>1421.0</ele><time>2026-04-18T14:16:54.471Z</time></trkpt><trkpt lat="43.6658995" lon="11.6546594"><ele>1420.0</ele><time>2026-04-18T14:16:55.464Z</time></trkpt><trkpt lat="43.6658179" lon="11.6545805"><ele>1419.0</ele><time>2026-04-18T14:16:56.46Z</time></trkpt><trkpt lat="43.6657293" lon="11.6544727"><ele>1423.5</ele><time>2026-04-18T14:16:57.465Z</time></trkpt><trkpt lat="43.6656539" lon="11.6543459"><ele>1428.0</ele><time>2026-04-18T14:16:58.47Z</time></trkpt><trkpt lat="43.6655994" lon="11.6542066"><ele>1432.5</ele><time>2026-04-18T14:16:59.456Z</time></trkpt><trkpt lat="43.6655481" lon="11.6540531"><ele>1437.0</ele><time>2026-04-18T14:17:00.457Z</time></trkpt><trkpt lat="43.6654941" lon="11.6538926"><ele>1437.0</ele><time>2026-04-18T14:17:01.453Z</time></trkpt><trkpt lat="43.6654435" lon="11.6537229"><ele>1437.0</ele><time>2026-04-18T14:17:02.454Z</time></trkpt><trkpt lat="43.6653934" lon="11.6535802"><ele>1437.0</ele><time>2026-04-18T14:17:03.47Z</time></trkpt><trkpt lat="43.6653429" lon="11.6534836"><ele>1437.0</ele><time>2026-04-18T14:17:04.461Z</time></trkpt><trkpt lat="43.665274" lon="11.6534023"><ele>1437.0</ele><time>2026-04-18T14:17:05.458Z</time></trkpt><trkpt lat="43.6651696" lon="11.6533462"><ele>1438.0</ele><time>2026-04-18T14:17:06.459Z</time></trkpt><trkpt lat="43.6650428" lon="11.6533189"><ele>1439.0</ele><time>2026-04-18T14:17:07.462Z</time></trkpt><trkpt lat="43.6649053" lon="11.6533158"><ele>1440.0</ele><time>2026-04-18T14:17:08.462Z</time></trkpt><trkpt lat="43.6647629" lon="11.6533326"><ele>1441.0</ele><time>2026-04-18T14:17:09.463Z</time></trkpt><trkpt lat="43.6646439" lon="11.6533261"><ele>1441.0</ele><time>2026-04-18T14:17:10.451Z</time></trkpt><trkpt lat="43.6645364" lon="11.6533177"><ele>1441.0</ele><time>2026-04-18T14:17:11.471Z</time></trkpt><trkpt lat="43.6644343" lon="11.6532761"><ele>1441.0</ele><time>2026-04-18T14:17:12.461Z</time></trkpt><trkpt lat="43.6643411" lon="11.653222"><ele>1441.0</ele><time>2026-04-18T14:17:13.461Z</time></trkpt><trkpt lat="43.6642387" lon="11.6531633"><ele>1441.0</ele><time>2026-04-18T14:17:14.466Z</time></trkpt><trkpt lat="43.6641425" lon="11.6530768"><ele>1441.0</ele><time>2026-04-18T14:17:15.462Z</time></trkpt><trkpt lat="43.664047" lon="11.6529901"><ele>1441.0</ele><time>2026-04-18T14:17:16.449Z</time></trkpt><trkpt lat="43.6639641" lon="11.6529032"><ele>1441.0</ele><time>2026-04-18T14:17:17.458Z</time></trkpt><trkpt lat="43.6639033" lon="11.6528103"><ele>1441.0</ele><time>2026-04-18T14:17:18.462Z</time></trkpt><trkpt lat="43.6638721" lon="11.6527142"><ele>1441.0</ele><time>2026-04-18T14:17:19.468Z</time></trkpt><trkpt lat="43.663849" lon="11.6526068"><ele>1441.0</ele><time>2026-04-18T14:17:20.452Z</time></trkpt><trkpt lat="43.6638068" lon="11.6524787"><ele>1441.0</ele><time>2026-04-18T14:17:21.463Z</time></trkpt><trkpt lat="43.6637488" lon="11.652371"><ele>1441.0</ele><time>2026-04-18T14:17:22.459Z</time></trkpt><trkpt lat="43.6636738" lon="11.6522708"><ele>1441.0</ele><time>2026-04-18T14:17:23.455Z</time></trkpt><trkpt lat="43.6635826" lon="11.652175"><ele>1441.0</ele><time>2026-04-18T14:17:24.458Z</time></trkpt><trkpt lat="43.6634765" lon="11.6520684"><ele>1441.0</ele><time>2026-04-18T14:17:25.465Z</time></trkpt><trkpt lat="43.6633734" lon="11.6519673"><ele>1441.0</ele><time>2026-04-18T14:17:26.468Z</time></trkpt><trkpt lat="43.6632889" lon="11.651861"><ele>1441.0</ele><time>2026-04-18T14:17:27.456Z</time></trkpt><trkpt lat="43.6632322" lon="11.6517583"><ele>1441.0</ele><time>2026-04-18T14:17:28.464Z</time></trkpt><trkpt lat="43.6631869" lon="11.6516479"><ele>1441.0</ele><time>2026-04-18T14:17:29.464Z</time></trkpt><trkpt lat="43.6631616" lon="11.6515327"><ele>1443.6666666666665</ele><time>2026-04-18T14:17:30.473Z</time></trkpt><trkpt lat="43.6631609" lon="11.6514048"><ele>1446.3333333333333</ele><time>2026-04-18T14:17:31.453Z</time></trkpt><trkpt lat="43.6631608" lon="11.6512819"><ele>1449.0</ele><time>2026-04-18T14:17:32.464Z</time></trkpt><trkpt lat="43.6631345" lon="11.6511672"><ele>1451.6666666666667</ele><time>2026-04-18T14:17:33.46Z</time></trkpt><trkpt lat="43.6630856" lon="11.6510811"><ele>1454.3333333333335</ele><time>2026-04-18T14:17:34.467Z</time></trkpt><trkpt lat="43.6630252" lon="11.6510286"><ele>1457.0</ele><time>2026-04-18T14:17:35.46Z</time></trkpt><trkpt lat="43.6629601" lon="11.6510264"><ele>1456.8333333333335</ele><time>2026-04-18T14:17:36.466Z</time></trkpt><trkpt lat="43.6628875" lon="11.6510406"><ele>1456.6666666666667</ele><time>2026-04-18T14:17:37.458Z</time></trkpt><trkpt lat="43.6628088" lon="11.6510758"><ele>1456.5</ele><time>2026-04-18T14:17:38.468Z</time></trkpt><trkpt lat="43.6627306" lon="11.6511299"><ele>1456.3333333333333</ele><time>2026-04-18T14:17:39.461Z</time></trkpt><trkpt lat="43.6626357" lon="11.6511802"><ele>1456.1666666666665</ele><time>2026-04-18T14:17:40.467Z</time></trkpt><trkpt lat="43.6625637" lon="11.6512376"><ele>1456.0</ele><time>2026-04-18T14:17:41.463Z</time></trkpt><trkpt lat="43.6624833" lon="11.6513223"><ele>1456.0</ele><time>2026-04-18T14:17:43.455Z</time></trkpt><trkpt lat="43.662422" lon="11.6513566"><ele>1456.0</ele><time>2026-04-18T14:17:46.465Z</time></trkpt><trkpt lat="43.6623949" lon="11.6512767"><ele>1456.0</ele><time>2026-04-18T14:18:35.459Z</time></trkpt><trkpt lat="43.6624619" lon="11.6512305"><ele>1456.0</ele><time>2026-04-18T14:18:40.46Z</time></trkpt><trkpt lat="43.6625262" lon="11.6512265"><ele>1456.0</ele><time>2026-04-18T14:18:43.459Z</time></trkpt><trkpt lat="43.6625886" lon="11.6511679"><ele>1456.0</ele><time>2026-04-18T14:20:10.476Z</time></trkpt><trkpt lat="43.6626756" lon="11.6511167"><ele>1456.0</ele><time>2026-04-18T14:20:12.46Z</time></trkpt><trkpt lat="43.6627395" lon="11.6510788"><ele>1456.1999999999998</ele><time>2026-04-18T14:20:14.457Z</time></trkpt><trkpt lat="43.6627976" lon="11.6510389"><ele>1456.3999999999999</ele><time>2026-04-18T14:20:16.455Z</time></trkpt><trkpt lat="43.6628611" lon="11.6509975"><ele>1456.6</ele><time>2026-04-18T14:20:18.46Z</time></trkpt><trkpt lat="43.6629607" lon="11.651032"><ele>1456.8</ele><time>2026-04-18T14:20:20.455Z</time></trkpt><trkpt lat="43.6630694" lon="11.6511085"><ele>1457.0</ele><time>2026-04-18T14:20:22.456Z</time></trkpt><trkpt lat="43.6631259" lon="11.6512431"><ele>1457.0</ele><time>2026-04-18T14:20:24.475Z</time></trkpt><trkpt lat="43.6631201" lon="11.6514261"><ele>1457.0</ele><time>2026-04-18T14:20:26.456Z</time></trkpt><trkpt lat="43.6631285" lon="11.6515433"><ele>1457.0</ele><time>2026-04-18T14:20:27.458Z</time></trkpt><trkpt lat="43.6631674" lon="11.65165"><ele>1457.0</ele><time>2026-04-18T14:20:28.459Z</time></trkpt><trkpt lat="43.6632312" lon="11.6517441"><ele>1457.0</ele><time>2026-04-18T14:20:29.472Z</time></trkpt><trkpt lat="43.6633142" lon="11.6518237"><ele>1457.0</ele><time>2026-04-18T14:20:30.459Z</time></trkpt><trkpt lat="43.6634073" lon="11.6519247"><ele>1457.0</ele><time>2026-04-18T14:20:31.47Z</time></trkpt><trkpt lat="43.6635145" lon="11.6520397"><ele>1457.0</ele><time>2026-04-18T14:20:32.443Z</time></trkpt><trkpt lat="43.6636046" lon="11.6521409"><ele>1457.0</ele><time>2026-04-18T14:20:33.453Z</time></trkpt><trkpt lat="43.6636929" lon="11.6522214"><ele>1456.6</ele><time>2026-04-18T14:20:34.461Z</time></trkpt><trkpt lat="43.6637772" lon="11.6523034"><ele>1456.1999999999998</ele><time>2026-04-18T14:20:35.463Z</time></trkpt><trkpt lat="43.6638518" lon="11.6523973"><ele>1455.8</ele><time>2026-04-18T14:20:36.47Z</time></trkpt><trkpt lat="43.6639041" lon="11.6525185"><ele>1455.4</ele><time>2026-04-18T14:20:37.479Z</time></trkpt><trkpt lat="43.6639554" lon="11.6526479"><ele>1455.0</ele><time>2026-04-18T14:20:38.475Z</time></trkpt><trkpt lat="43.6640042" lon="11.6527872"><ele>1452.2</ele><time>2026-04-18T14:20:39.453Z</time></trkpt><trkpt lat="43.6640469" lon="11.6529114"><ele>1449.4</ele><time>2026-04-18T14:20:40.467Z</time></trkpt><trkpt lat="43.6641068" lon="11.6530085"><ele>1446.6</ele><time>2026-04-18T14:20:41.46Z</time></trkpt><trkpt lat="43.6641892" lon="11.6531014"><ele>1443.8</ele><time>2026-04-18T14:20:42.47Z</time></trkpt><trkpt lat="43.664291" lon="11.6531928"><ele>1441.0</ele><time>2026-04-18T14:20:43.485Z</time></trkpt><trkpt lat="43.6643834" lon="11.653269"><ele>1441.0</ele><time>2026-04-18T14:20:44.484Z</time></trkpt><trkpt lat="43.6644776" lon="11.6533436"><ele>1441.0</ele><time>2026-04-18T14:20:45.453Z</time></trkpt><trkpt lat="43.6645751" lon="11.6533993"><ele>1441.0</ele><time>2026-04-18T14:20:46.441Z</time></trkpt><trkpt lat="43.6646874" lon="11.6534373"><ele>1441.0</ele><time>2026-04-18T14:20:47.447Z</time></trkpt><trkpt lat="43.6648144" lon="11.6534511"><ele>1441.0</ele><time>2026-04-18T14:20:48.466Z</time></trkpt><trkpt lat="43.664938" lon="11.6534683"><ele>1441.0</ele><time>2026-04-18T14:20:49.462Z</time></trkpt><trkpt lat="43.6650474" lon="11.6534643"><ele>1441.0</ele><time>2026-04-18T14:20:50.458Z</time></trkpt><trkpt lat="43.6651375" lon="11.6534558"><ele>1441.0</ele><time>2026-04-18T14:20:51.461Z</time></trkpt><trkpt lat="43.6652205" lon="11.6534732"><ele>1441.0</ele><time>2026-04-18T14:20:52.439Z</time></trkpt><trkpt lat="43.665291" lon="11.6535223"><ele>1440.1999999999998</ele><time>2026-04-18T14:20:53.45Z</time></trkpt><trkpt lat="43.6653509" lon="11.6536059"><ele>1439.3999999999999</ele><time>2026-04-18T14:20:54.454Z</time></trkpt><trkpt lat="43.6654043" lon="11.6537171"><ele>1438.6</ele><time>2026-04-18T14:20:55.462Z</time></trkpt><trkpt lat="43.6654386" lon="11.6538699"><ele>1437.8</ele><time>2026-04-18T14:20:56.46Z</time></trkpt><trkpt lat="43.6654779" lon="11.6540468"><ele>1437.0</ele><time>2026-04-18T14:20:57.457Z</time></trkpt><trkpt lat="43.6655282" lon="11.6542195"><ele>1437.0</ele><time>2026-04-18T14:20:58.458Z</time></trkpt><trkpt lat="43.6655817" lon="11.6543576"><ele>1437.0</ele><time>2026-04-18T14:20:59.455Z</time></trkpt><trkpt lat="43.6656603" lon="11.6544811"><ele>1437.0</ele><time>2026-04-18T14:21:00.467Z</time></trkpt><trkpt lat="43.6657529" lon="11.6545977"><ele>1437.0</ele><time>2026-04-18T14:21:01.466Z</time></trkpt><trkpt lat="43.6658419" lon="11.6546925"><ele>1434.8333333333333</ele><time>2026-04-18T14:21:02.463Z</time></trkpt><trkpt lat="43.6659293" lon="11.6547727"><ele>1432.6666666666667</ele><time>2026-04-18T14:21:03.468Z</time></trkpt><trkpt lat="43.6660118" lon="11.6548277"><ele>1430.5</ele><time>2026-04-18T14:21:04.454Z</time></trkpt><trkpt lat="43.6660875" lon="11.654853"><ele>1428.3333333333335</ele><time>2026-04-18T14:21:05.456Z</time></trkpt><trkpt lat="43.6661709" lon="11.6548527"><ele>1426.1666666666667</ele><time>2026-04-18T14:21:06.453Z</time></trkpt><trkpt lat="43.6662543" lon="11.6548283"><ele>1424.0</ele><time>2026-04-18T14:21:07.448Z</time></trkpt><trkpt lat="43.6663445" lon="11.654795"><ele>1424.0</ele><time>2026-04-18T14:21:08.468Z</time></trkpt><trkpt lat="43.6664416" lon="11.6547788"><ele>1424.0</ele><time>2026-04-18T14:21:09.457Z</time></trkpt><trkpt lat="43.6665516" lon="11.654786"><ele>1424.0</ele><time>2026-04-18T14:21:10.456Z</time></trkpt><trkpt lat="43.6666452" lon="11.6548167"><ele>1424.0</ele><time>2026-04-18T14:21:11.459Z</time></trkpt><trkpt lat="43.6667381" lon="11.6548896"><ele>1424.0</ele><time>2026-04-18T14:21:12.449Z</time></trkpt><trkpt lat="43.6667939" lon="11.6549792"><ele>1424.0</ele><time>2026-04-18T14:21:13.466Z</time></trkpt><trkpt lat="43.6668395" lon="11.6550827"><ele>1424.0</ele><time>2026-04-18T14:21:14.467Z</time></trkpt><trkpt lat="43.6668661" lon="11.6552026"><ele>1424.0</ele><time>2026-04-18T14:21:15.45Z</time></trkpt><trkpt lat="43.6668942" lon="11.6553096"><ele>1424.0</ele><time>2026-04-18T14:21:16.453Z</time></trkpt><trkpt lat="43.6669373" lon="11.6554011"><ele>1424.0</ele><time>2026-04-18T14:21:17.466Z</time></trkpt><trkpt lat="43.6669972" lon="11.6554653"><ele>1424.0</ele><time>2026-04-18T14:21:18.467Z</time></trkpt><trkpt lat="43.6670723" lon="11.6555131"><ele>1420.8000000000002</ele><time>2026-04-18T14:21:19.467Z</time></trkpt><trkpt lat="43.6671456" lon="11.6555321"><ele>1417.6000000000001</ele><time>2026-04-18T14:21:20.466Z</time></trkpt><trkpt lat="43.6672219" lon="11.6555202"><ele>1414.4</ele><time>2026-04-18T14:21:21.458Z</time></trkpt><trkpt lat="43.6673099" lon="11.6554886"><ele>1411.2</ele><time>2026-04-18T14:21:22.466Z</time></trkpt><trkpt lat="43.6674206" lon="11.6554641"><ele>1408.0</ele><time>2026-04-18T14:21:23.477Z</time></trkpt><trkpt lat="43.6675521" lon="11.6554563"><ele>1408.0</ele><time>2026-04-18T14:21:24.465Z</time></trkpt><trkpt lat="43.667684" lon="11.6554423"><ele>1408.0</ele><time>2026-04-18T14:21:25.487Z</time></trkpt><trkpt lat="43.6678024" lon="11.6554156"><ele>1408.0</ele><time>2026-04-18T14:21:26.481Z</time></trkpt><trkpt lat="43.6679222" lon="11.6553967"><ele>1408.0</ele><time>2026-04-18T14:21:27.459Z</time></trkpt><trkpt lat="43.6680355" lon="11.6553565"><ele>1409.0</ele><time>2026-04-18T14:21:28.467Z</time></trkpt><trkpt lat="43.6681451" lon="11.6552892"><ele>1410.0</ele><time>2026-04-18T14:21:29.47Z</time></trkpt><trkpt lat="43.6682577" lon="11.6552447"><ele>1411.0</ele><time>2026-04-18T14:21:30.463Z</time></trkpt><trkpt lat="43.6683771" lon="11.6552151"><ele>1412.0</ele><time>2026-04-18T14:21:31.463Z</time></trkpt><trkpt lat="43.6684952" lon="11.6551861"><ele>1412.0</ele><time>2026-04-18T14:21:32.454Z</time></trkpt><trkpt lat="43.6686056" lon="11.655149"><ele>1412.0</ele><time>2026-04-18T14:21:33.454Z</time></trkpt><trkpt lat="43.6687026" lon="11.6551082"><ele>1412.0</ele><time>2026-04-18T14:21:34.455Z</time></trkpt><trkpt lat="43.6687847" lon="11.655058"><ele>1412.0</ele><time>2026-04-18T14:21:35.438Z</time></trkpt><trkpt lat="43.6688511" lon="11.6550066"><ele>1412.0</ele><time>2026-04-18T14:21:36.488Z</time></trkpt><trkpt lat="43.6689079" lon="11.654952"><ele>1409.1999999999998</ele><time>2026-04-18T14:21:37.461Z</time></trkpt><trkpt lat="43.668998" lon="11.6548262"><ele>1406.4</ele><time>2026-04-18T14:21:39.464Z</time></trkpt><trkpt lat="43.6690559" lon="11.6547604"><ele>1403.6</ele><time>2026-04-18T14:21:40.46Z</time></trkpt><trkpt lat="43.6691194" lon="11.654722"><ele>1400.8000000000002</ele><time>2026-04-18T14:21:41.459Z</time></trkpt><trkpt lat="43.6692284" lon="11.6546911"><ele>1398.0</ele><time>2026-04-18T14:21:43.491Z</time></trkpt><trkpt lat="43.6693114" lon="11.6546353"><ele>1398.0</ele><time>2026-04-18T14:21:45.473Z</time></trkpt><trkpt lat="43.6692341" lon="11.6546644"><ele>1398.0</ele><time>2026-04-18T14:21:53.469Z</time></trkpt><trkpt lat="43.6691765" lon="11.6547218"><ele>1398.0</ele><time>2026-04-18T14:21:56.446Z</time></trkpt><trkpt lat="43.6690964" lon="11.6547291"><ele>1398.0</ele><time>2026-04-18T14:23:09.442Z</time></trkpt><trkpt lat="43.6690254" lon="11.6546764"><ele>1398.0</ele><time>2026-04-18T14:23:10.456Z</time></trkpt><trkpt lat="43.6689074" lon="11.6545702"><ele>1398.0</ele><time>2026-04-18T14:23:11.457Z</time></trkpt><trkpt lat="43.6687789" lon="11.6544939"><ele>1398.0</ele><time>2026-04-18T14:23:12.458Z</time></trkpt><trkpt lat="43.6686475" lon="11.6544304"><ele>1398.0</ele><time>2026-04-18T14:23:13.452Z</time></trkpt><trkpt lat="43.6685083" lon="11.6543768"><ele>1398.0</ele><time>2026-04-18T14:23:14.458Z</time></trkpt><trkpt lat="43.6683782" lon="11.6543444"><ele>1399.2</ele><time>2026-04-18T14:23:15.459Z</time></trkpt><trkpt lat="43.6682683" lon="11.6543058"><ele>1400.4</ele><time>2026-04-18T14:23:16.454Z</time></trkpt><trkpt lat="43.6681853" lon="11.6542595"><ele>1401.6000000000001</ele><time>2026-04-18T14:23:17.46Z</time></trkpt><trkpt lat="43.6681127" lon="11.6541851"><ele>1402.8000000000002</ele><time>2026-04-18T14:23:18.455Z</time></trkpt><trkpt lat="43.6680455" lon="11.654085"><ele>1404.0</ele><time>2026-04-18T14:23:19.457Z</time></trkpt><trkpt lat="43.6679633" lon="11.6539792"><ele>1404.0</ele><time>2026-04-18T14:23:20.457Z</time></trkpt><trkpt lat="43.6678793" lon="11.653886"><ele>1404.0</ele><time>2026-04-18T14:23:21.456Z</time></trkpt><trkpt lat="43.6677881" lon="11.6538087"><ele>1404.0</ele><time>2026-04-18T14:23:22.46Z</time></trkpt><trkpt lat="43.6676958" lon="11.6537419"><ele>1404.0</ele><time>2026-04-18T14:23:23.469Z</time></trkpt><trkpt lat="43.6676178" lon="11.6536952"><ele>1404.0</ele><time>2026-04-18T14:23:24.456Z</time></trkpt><trkpt lat="43.6675642" lon="11.6536225"><ele>1407.2</ele><time>2026-04-18T14:23:25.45Z</time></trkpt><trkpt lat="43.667532" lon="11.6535333"><ele>1410.4</ele><time>2026-04-18T14:23:26.456Z</time></trkpt><trkpt lat="43.6675182" lon="11.6534318"><ele>1413.6</ele><time>2026-04-18T14:23:27.468Z</time></trkpt><trkpt lat="43.6675074" lon="11.6532985"><ele>1416.8</ele><time>2026-04-18T14:23:28.453Z</time></trkpt><trkpt lat="43.6675015" lon="11.6531582"><ele>1420.0</ele><time>2026-04-18T14:23:29.453Z</time></trkpt><trkpt lat="43.6674829" lon="11.6530141"><ele>1420.0</ele><time>2026-04-18T14:23:30.456Z</time></trkpt><trkpt lat="43.6674496" lon="11.6528708"><ele>1420.0</ele><time>2026-04-18T14:23:31.446Z</time></trkpt><trkpt lat="43.6674148" lon="11.6527179"><ele>1420.0</ele><time>2026-04-18T14:23:32.448Z</time></trkpt><trkpt lat="43.6673936" lon="11.6525612"><ele>1420.0</ele><time>2026-04-18T14:23:33.461Z</time></trkpt><trkpt lat="43.6673946" lon="11.6524246"><ele>1420.0</ele><time>2026-04-18T14:23:34.467Z</time></trkpt><trkpt lat="43.667408" lon="11.6522816"><ele>1420.0</ele><time>2026-04-18T14:23:35.453Z</time></trkpt><trkpt lat="43.667451" lon="11.6521312"><ele>1420.0</ele><time>2026-04-18T14:23:36.454Z</time></trkpt><trkpt lat="43.6675104" lon="11.6519831"><ele>1420.0</ele><time>2026-04-18T14:23:37.466Z</time></trkpt><trkpt lat="43.6675655" lon="11.6518356"><ele>1420.0</ele><time>2026-04-18T14:23:38.455Z</time></trkpt><trkpt lat="43.6676284" lon="11.6516919"><ele>1420.6</ele><time>2026-04-18T14:23:39.464Z</time></trkpt><trkpt lat="43.6676695" lon="11.6515417"><ele>1421.2</ele><time>2026-04-18T14:23:40.451Z</time></trkpt><trkpt lat="43.667674" lon="11.651394"><ele>1421.8000000000002</ele><time>2026-04-18T14:23:41.456Z</time></trkpt><trkpt lat="43.6676457" lon="11.6512574"><ele>1422.4</ele><time>2026-04-18T14:23:42.445Z</time></trkpt><trkpt lat="43.6675989" lon="11.6511249"><ele>1423.0</ele><time>2026-04-18T14:23:43.452Z</time></trkpt><trkpt lat="43.6675304" lon="11.6509916"><ele>1423.0</ele><time>2026-04-18T14:23:44.449Z</time></trkpt><trkpt lat="43.667439" lon="11.6508461"><ele>1423.0</ele><time>2026-04-18T14:23:45.448Z</time></trkpt><trkpt lat="43.6673445" lon="11.6507051"><ele>1423.0</ele><time>2026-04-18T14:23:46.453Z</time></trkpt><trkpt lat="43.6672396" lon="11.6505629"><ele>1423.0</ele><time>2026-04-18T14:23:47.452Z</time></trkpt><trkpt lat="43.6671248" lon="11.6504303"><ele>1423.0</ele><time>2026-04-18T14:23:48.449Z</time></trkpt><trkpt lat="43.6670021" lon="11.6503049"><ele>1423.0</ele><time>2026-04-18T14:23:49.451Z</time></trkpt><trkpt lat="43.666863" lon="11.6501827"><ele>1423.0</ele><time>2026-04-18T14:23:50.455Z</time></trkpt><trkpt lat="43.6667314" lon="11.6500684"><ele>1426.5</ele><time>2026-04-18T14:23:51.454Z</time></trkpt><trkpt lat="43.6666163" lon="11.6499568"><ele>1430.0</ele><time>2026-04-18T14:23:52.463Z</time></trkpt><trkpt lat="43.6665172" lon="11.6498264"><ele>1433.5</ele><time>2026-04-18T14:23:53.456Z</time></trkpt><trkpt lat="43.6664345" lon="11.6496603"><ele>1437.0</ele><time>2026-04-18T14:23:54.454Z</time></trkpt><trkpt lat="43.6663418" lon="11.649498"><ele>1441.5</ele><time>2026-04-18T14:23:55.453Z</time></trkpt><trkpt lat="43.6662383" lon="11.649372"><ele>1446.0</ele><time>2026-04-18T14:23:56.45Z</time></trkpt><trkpt lat="43.6661378" lon="11.6492475"><ele>1450.5</ele><time>2026-04-18T14:23:57.454Z</time></trkpt><trkpt lat="43.6660588" lon="11.6491402"><ele>1455.0</ele><time>2026-04-18T14:23:58.448Z</time></trkpt><trkpt lat="43.6660238" lon="11.6490231"><ele>1455.0</ele><time>2026-04-18T14:23:59.463Z</time></trkpt><trkpt lat="43.6660102" lon="11.6488964"><ele>1455.0</ele><time>2026-04-18T14:24:00.46Z</time></trkpt><trkpt lat="43.6660248" lon="11.6487628"><ele>1455.0</ele><time>2026-04-18T14:24:01.449Z</time></trkpt><trkpt lat="43.6660675" lon="11.6486074"><ele>1455.0</ele><time>2026-04-18T14:24:02.453Z</time></trkpt><trkpt lat="43.6661137" lon="11.6484388"><ele>1455.0</ele><time>2026-04-18T14:24:03.455Z</time></trkpt><trkpt lat="43.6661574" lon="11.6482725"><ele>1453.6</ele><time>2026-04-18T14:24:04.45Z</time></trkpt><trkpt lat="43.6661577" lon="11.6481401"><ele>1452.2</ele><time>2026-04-18T14:24:05.456Z</time></trkpt><trkpt lat="43.6661062" lon="11.6480192"><ele>1450.8000000000002</ele><time>2026-04-18T14:24:06.45Z</time></trkpt><trkpt lat="43.6660269" lon="11.647909"><ele>1449.4</ele><time>2026-04-18T14:24:07.461Z</time></trkpt><trkpt lat="43.6659254" lon="11.647812"><ele>1448.0</ele><time>2026-04-18T14:24:08.454Z</time></trkpt><trkpt lat="43.6658096" lon="11.6477345"><ele>1442.5</ele><time>2026-04-18T14:24:09.454Z</time></trkpt><trkpt lat="43.6656884" lon="11.6476713"><ele>1437.0</ele><time>2026-04-18T14:24:10.46Z</time></trkpt><trkpt lat="43.6655593" lon="11.647612"><ele>1431.5</ele><time>2026-04-18T14:24:11.476Z</time></trkpt><trkpt lat="43.6654159" lon="11.6475642"><ele>1426.0</ele><time>2026-04-18T14:24:12.454Z</time></trkpt><trkpt lat="43.6652967" lon="11.6475177"><ele>1434.5</ele><time>2026-04-18T14:24:13.45Z</time></trkpt><trkpt lat="43.6651862" lon="11.6474667"><ele>1443.0</ele><time>2026-04-18T14:24:14.452Z</time></trkpt><trkpt lat="43.6650983" lon="11.6473795"><ele>1451.5</ele><time>2026-04-18T14:24:15.453Z</time></trkpt><trkpt lat="43.6650595" lon="11.6472423"><ele>1460.0</ele><time>2026-04-18T14:24:16.445Z</time></trkpt><trkpt lat="43.6650455" lon="11.6470719"><ele>1455.0</ele><time>2026-04-18T14:24:17.441Z</time></trkpt><trkpt lat="43.6650288" lon="11.646916"><ele>1450.0</ele><time>2026-04-18T14:24:18.442Z</time></trkpt><trkpt lat="43.6649822" lon="11.6467702"><ele>1445.0</ele><time>2026-04-18T14:24:19.443Z</time></trkpt><trkpt lat="43.6649007" lon="11.6466138"><ele>1440.0</ele><time>2026-04-18T14:24:20.441Z</time></trkpt><trkpt lat="43.6647993" lon="11.6464586"><ele>1440.0</ele><time>2026-04-18T14:24:21.455Z</time></trkpt><trkpt lat="43.6647128" lon="11.6462943"><ele>1440.0</ele><time>2026-04-18T14:24:22.451Z</time></trkpt><trkpt lat="43.6646188" lon="11.6461181"><ele>1440.0</ele><time>2026-04-18T14:24:23.448Z</time></trkpt><trkpt lat="43.6645293" lon="11.645943"><ele>1444.0</ele><time>2026-04-18T14:24:24.46Z</time></trkpt><trkpt lat="43.6644276" lon="11.6457876"><ele>1448.0</ele><time>2026-04-18T14:24:25.455Z</time></trkpt><trkpt lat="43.6642968" lon="11.6456511"><ele>1452.0</ele><time>2026-04-18T14:24:26.449Z</time></trkpt><trkpt lat="43.6641561" lon="11.6455132"><ele>1452.0</ele><time>2026-04-18T14:24:27.445Z</time></trkpt><trkpt lat="43.6640166" lon="11.6453752"><ele>1452.0</ele><time>2026-04-18T14:24:28.45Z</time></trkpt><trkpt lat="43.6638938" lon="11.6452398"><ele>1452.0</ele><time>2026-04-18T14:24:29.454Z</time></trkpt><trkpt lat="43.663788" lon="11.6451091"><ele>1446.3333333333333</ele><time>2026-04-18T14:24:30.451Z</time></trkpt><trkpt lat="43.6637162" lon="11.6449425"><ele>1440.6666666666665</ele><time>2026-04-18T14:24:31.454Z</time></trkpt><trkpt lat="43.6636846" lon="11.6447401"><ele>1435.0</ele><time>2026-04-18T14:24:32.471Z</time></trkpt><trkpt lat="43.6636702" lon="11.644515"><ele>1432.0</ele><time>2026-04-18T14:24:33.456Z</time></trkpt><trkpt lat="43.6636718" lon="11.6442736"><ele>1429.0</ele><time>2026-04-18T14:24:34.448Z</time></trkpt><trkpt lat="43.6636754" lon="11.6440309"><ele>1426.0</ele><time>2026-04-18T14:24:35.447Z</time></trkpt><trkpt lat="43.6636789" lon="11.6437798"><ele>1425.0</ele><time>2026-04-18T14:24:36.458Z</time></trkpt><trkpt lat="43.6636759" lon="11.6435232"><ele>1424.0</ele><time>2026-04-18T14:24:37.444Z</time></trkpt><trkpt lat="43.6636687" lon="11.6432948"><ele>1423.0</ele><time>2026-04-18T14:24:38.455Z</time></trkpt><trkpt lat="43.6636789" lon="11.643089"><ele>1423.0</ele><time>2026-04-18T14:24:39.454Z</time></trkpt><trkpt lat="43.6636967" lon="11.6429056"><ele>1423.0</ele><time>2026-04-18T14:24:40.448Z</time></trkpt><trkpt lat="43.6637251" lon="11.6427454"><ele>1423.0</ele><time>2026-04-18T14:24:41.458Z</time></trkpt><trkpt lat="43.6637609" lon="11.6426071"><ele>1423.0</ele><time>2026-04-18T14:24:42.454Z</time></trkpt><trkpt lat="43.6638044" lon="11.6424836"><ele>1424.8333333333333</ele><time>2026-04-18T14:24:43.458Z</time></trkpt><trkpt lat="43.6638427" lon="11.6423896"><ele>1426.6666666666665</ele><time>2026-04-18T14:24:44.467Z</time></trkpt><trkpt lat="43.663896" lon="11.6422686"><ele>1428.5</ele><time>2026-04-18T14:24:46.454Z</time></trkpt><trkpt lat="43.6639429" lon="11.6421832"><ele>1430.3333333333333</ele><time>2026-04-18T14:24:48.452Z</time></trkpt><trkpt lat="43.6639821" lon="11.6421017"><ele>1432.1666666666667</ele><time>2026-04-18T14:24:51.456Z</time></trkpt><trkpt lat="43.6640269" lon="11.6420308"><ele>1434.0</ele><time>2026-04-18T14:24:55.46Z</time></trkpt><trkpt lat="43.6589054" lon="11.6396887"><ele>1434.0</ele><time>2026-04-18T14:30:40.448Z</time></trkpt><trkpt lat="43.6588208" lon="11.6395852"><ele>1434.0</ele><time>2026-04-18T14:30:41.46Z</time></trkpt><trkpt lat="43.6587286" lon="11.639501"><ele>1434.0</ele><time>2026-04-18T14:30:42.451Z</time></trkpt><trkpt lat="43.6585268" lon="11.639418"><ele>1434.0</ele><time>2026-04-18T14:30:44.46Z</time></trkpt><trkpt lat="43.658419" lon="11.6394152"><ele>1436.8000000000002</ele><time>2026-04-18T14:30:45.459Z</time></trkpt><trkpt lat="43.6583049" lon="11.639432"><ele>1439.6000000000001</ele><time>2026-04-18T14:30:46.454Z</time></trkpt><trkpt lat="43.6581957" lon="11.639473"><ele>1442.4</ele><time>2026-04-18T14:30:47.445Z</time></trkpt><trkpt lat="43.658094" lon="11.6395319"><ele>1445.2</ele><time>2026-04-18T14:30:48.445Z</time></trkpt><trkpt lat="43.6580095" lon="11.6396033"><ele>1448.0</ele><time>2026-04-18T14:30:49.455Z</time></trkpt><trkpt lat="43.6579444" lon="11.6397015"><ele>1448.0</ele><time>2026-04-18T14:30:50.445Z</time></trkpt><trkpt lat="43.6578871" lon="11.6398296"><ele>1448.0</ele><time>2026-04-18T14:30:51.457Z</time></trkpt><trkpt lat="43.6578285" lon="11.6399856"><ele>1448.0</ele><time>2026-04-18T14:30:52.458Z</time></trkpt><trkpt lat="43.6577636" lon="11.6401406"><ele>1448.0</ele><time>2026-04-18T14:30:53.453Z</time></trkpt><trkpt lat="43.6577001" lon="11.6402825"><ele>1445.0</ele><time>2026-04-18T14:30:54.453Z</time></trkpt><trkpt lat="43.6576339" lon="11.6404218"><ele>1442.0</ele><time>2026-04-18T14:30:55.452Z</time></trkpt><trkpt lat="43.6575741" lon="11.6405586"><ele>1439.0</ele><time>2026-04-18T14:30:56.452Z</time></trkpt><trkpt lat="43.6575089" lon="11.640698"><ele>1436.0</ele><time>2026-04-18T14:30:57.446Z</time></trkpt><trkpt lat="43.6574348" lon="11.6408394"><ele>1436.0</ele><time>2026-04-18T14:30:58.452Z</time></trkpt><trkpt lat="43.6573478" lon="11.6409842"><ele>1436.0</ele><time>2026-04-18T14:30:59.456Z</time></trkpt><trkpt lat="43.6572522" lon="11.6411244"><ele>1436.0</ele><time>2026-04-18T14:31:00.447Z</time></trkpt><trkpt lat="43.6571544" lon="11.6412616"><ele>1436.0</ele><time>2026-04-18T14:31:01.442Z</time></trkpt><trkpt lat="43.657045" lon="11.6414127"><ele>1463.0</ele><time>2026-04-18T14:31:02.439Z</time></trkpt><trkpt lat="43.6569212" lon="11.6415822"><ele>1419.0</ele><time>2026-04-18T14:31:03.444Z</time></trkpt></trkseg></trk></gpx>